<?xml version='1.0' encoding='UTF-8'?><gpx version="1.1" creator="JPX - https://github.com/jenetics/jpx" xmlns="http://www.topografix.com/GPX/1/1"><trk><trkseg><trkpt lat="-34.08906414978192" lon="-71.96155682232033"><ele>0.0</ele><time>2026-03-30T18:56:15Z</time></trkpt><trkpt lat="-34.089031836254144" lon="-71.96163121614266"><ele>0.0</ele><time>2026-03-30T18:56:20Z</time></trkpt><trkpt lat="-34.089017950381354" lon="-71.96170945677581"><ele>0.0</ele><time>2026-03-30T18:56:25Z</time></trkpt><trkpt lat="-34.089006783312634" lon="-71.96178627324142"><ele>0.0</ele><time>2026-03-30T18:56:30Z</time></trkpt><trkpt lat="-34.08897208537716" lon="-71.96186153174396"><ele>0.0</ele><time>2026-03-30T18:56:36Z</time></trkpt><trkpt lat="-34.08894450443661" lon="-71.96193657131892"><ele>0.0</ele><time>2026-03-30T18:56:43Z</time></trkpt><trkpt lat="-34.08894013330508" lon="-71.96201776979284"><ele>0.0</ele><time>2026-03-30T18:56:48Z</time></trkpt><trkpt lat="-34.08891077457676" lon="-71.96208857396257"><ele>0.42857142857142855</ele><time>2026-03-30T18:56:56Z</time></trkpt><trkpt lat="-34.088956856262556" lon="-71.96215379712396"><ele>0.8571428571428571</ele><time>2026-03-30T18:57:01Z</time></trkpt><trkpt lat="-34.08897327817959" lon="-71.96222934625227"><ele>1.2857142857142856</ele><time>2026-03-30T18:57:10Z</time></trkpt><trkpt lat="-34.08897713609821" lon="-71.96232459907544"><ele>1.7142857142857142</ele><time>2026-03-30T18:57:19Z</time></trkpt><trkpt lat="-34.08894194120601" lon="-71.96239039412436"><ele>2.142857142857143</ele><time>2026-03-30T18:57:25Z</time></trkpt><trkpt lat="-34.08890117582877" lon="-71.96244860657332"><ele>2.571428571428571</ele><time>2026-03-30T18:57:34Z</time></trkpt><trkpt lat="-34.08885783060619" lon="-71.96250560632072"><ele>3.0</ele><time>2026-03-30T18:57:40Z</time></trkpt><trkpt lat="-34.088795234810874" lon="-71.96254864053745"><ele>5.857142857142857</ele><time>2026-03-30T18:57:45Z</time></trkpt><trkpt lat="-34.08873620670648" lon="-71.9625922908492"><ele>8.714285714285714</ele><time>2026-03-30T18:57:50Z</time></trkpt><trkpt lat="-34.08867865844321" lon="-71.96263294691033"><ele>11.571428571428571</ele><time>2026-03-30T18:57:55Z</time></trkpt><trkpt lat="-34.088625358013005" lon="-71.96269302924637"><ele>14.428571428571427</ele><time>2026-03-30T18:58:00Z</time></trkpt><trkpt lat="-34.08856842316065" lon="-71.96276867001333"><ele>17.285714285714285</ele><time>2026-03-30T18:58:06Z</time></trkpt><trkpt lat="-34.08853186695316" lon="-71.96283984928998"><ele>20.142857142857142</ele><time>2026-03-30T18:58:12Z</time></trkpt><trkpt lat="-34.08848153798947" lon="-71.96290683881323"><ele>23.0</ele><time>2026-03-30T18:58:18Z</time></trkpt><trkpt lat="-34.088438802128294" lon="-71.96296908079489"><ele>23.0</ele><time>2026-03-30T18:58:24Z</time></trkpt><trkpt lat="-34.08839141765262" lon="-71.96303762281458"><ele>23.0</ele><time>2026-03-30T18:58:30Z</time></trkpt><trkpt lat="-34.08833576155072" lon="-71.96309682157337"><ele>23.0</ele><time>2026-03-30T18:58:36Z</time></trkpt><trkpt lat="-34.08829276298651" lon="-71.96316770597275"><ele>23.0</ele><time>2026-03-30T18:58:42Z</time></trkpt><trkpt lat="-34.08825127109528" lon="-71.96322620787473"><ele>23.0</ele><time>2026-03-30T18:58:48Z</time></trkpt><trkpt lat="-34.08821238073582" lon="-71.9632864587847"><ele>23.0</ele><time>2026-03-30T18:58:53Z</time></trkpt><trkpt lat="-34.08816862322509" lon="-71.96334591666202"><ele>23.0</ele><time>2026-03-30T18:58:59Z</time></trkpt><trkpt lat="-34.08813910571036" lon="-71.96343019615905"><ele>24.285714285714285</ele><time>2026-03-30T18:59:05Z</time></trkpt><trkpt lat="-34.08811912373809" lon="-71.96351110120158"><ele>25.57142857142857</ele><time>2026-03-30T18:59:11Z</time></trkpt><trkpt lat="-34.088114892068894" lon="-71.96359504186161"><ele>26.857142857142854</ele><time>2026-03-30T18:59:18Z</time></trkpt><trkpt lat="-34.088090441562464" lon="-71.96367097163719"><ele>28.142857142857142</ele><time>2026-03-30T18:59:24Z</time></trkpt><trkpt lat="-34.08803877557984" lon="-71.96371501174937"><ele>29.428571428571423</ele><time>2026-03-30T18:59:29Z</time></trkpt><trkpt lat="-34.08797613329478" lon="-71.96375782260537"><ele>30.71428571428571</ele><time>2026-03-30T18:59:36Z</time></trkpt><trkpt lat="-34.08790444152539" lon="-71.96377830124598"><ele>32.0</ele><time>2026-03-30T18:59:43Z</time></trkpt><trkpt lat="-34.08785624359604" lon="-71.96384123947557"><ele>32.0</ele><time>2026-03-30T18:59:50Z</time></trkpt><trkpt lat="-34.087808561082554" lon="-71.963901613454"><ele>31.999999999999996</ele><time>2026-03-30T18:59:56Z</time></trkpt><trkpt lat="-34.0877571868242" lon="-71.96396334873303"><ele>32.0</ele><time>2026-03-30T19:00:26Z</time></trkpt><trkpt lat="-34.08772434362484" lon="-71.96403189238397"><ele>32.0</ele><time>2026-03-30T19:00:34Z</time></trkpt><trkpt lat="-34.08765095633731" lon="-71.96402754271743"><ele>31.999999999999996</ele><time>2026-03-30T19:00:41Z</time></trkpt><trkpt lat="-34.08758041245016" lon="-71.96401512080794"><ele>32.0</ele><time>2026-03-30T19:00:47Z</time></trkpt><trkpt lat="-34.08751832020355" lon="-71.9640646018363"><ele>32.0</ele><time>2026-03-30T19:00:53Z</time></trkpt><trkpt lat="-34.08747899882203" lon="-71.96413251299866"><ele>30.0</ele><time>2026-03-30T19:01:00Z</time></trkpt><trkpt lat="-34.08741266400016" lon="-71.96416185507272"><ele>27.999999999999996</ele><time>2026-03-30T19:01:09Z</time></trkpt><trkpt lat="-34.087386182408224" lon="-71.96423753239064"><ele>26.0</ele><time>2026-03-30T19:01:37Z</time></trkpt><trkpt lat="-34.08747861557638" lon="-71.96421962385453"><ele>24.0</ele><time>2026-03-30T19:02:06Z</time></trkpt><trkpt lat="-34.087522546005594" lon="-71.96427755479993"><ele>22.0</ele><time>2026-03-30T19:02:19.001Z</time></trkpt><trkpt lat="-34.087511939217826" lon="-71.96435311484824"><ele>20.0</ele><time>2026-03-30T19:02:29Z</time></trkpt><trkpt lat="-34.087575401162354" lon="-71.96439113780414"><ele>18.0</ele><time>2026-03-30T19:02:41Z</time></trkpt><trkpt lat="-34.08764511228644" lon="-71.96439794628564"><ele>23.0</ele><time>2026-03-30T19:02:49Z</time></trkpt><trkpt lat="-34.08770232319699" lon="-71.96444748962297"><ele>28.0</ele><time>2026-03-30T19:02:58Z</time></trkpt><trkpt lat="-34.08771045246018" lon="-71.96452416033297"><ele>33.0</ele><time>2026-03-30T19:03:03Z</time></trkpt><trkpt lat="-34.087716223861875" lon="-71.96460726274232"><ele>38.0</ele><time>2026-03-30T19:03:12Z</time></trkpt><trkpt lat="-34.08768357784969" lon="-71.96468303748564"><ele>43.0</ele><time>2026-03-30T19:03:17Z</time></trkpt><trkpt lat="-34.087640482334876" lon="-71.96475040464085"><ele>48.0</ele><time>2026-03-30T19:03:24Z</time></trkpt><trkpt lat="-34.08759907870464" lon="-71.9648201482827"><ele>53.0</ele><time>2026-03-30T19:03:29Z</time></trkpt><trkpt lat="-34.08756976852106" lon="-71.96489791354688"><ele>53.0</ele><time>2026-03-30T19:03:35Z</time></trkpt><trkpt lat="-34.087539605385786" lon="-71.96497194560389"><ele>53.0</ele><time>2026-03-30T19:03:43Z</time></trkpt><trkpt lat="-34.0875285013868" lon="-71.96505601418505"><ele>53.0</ele><time>2026-03-30T19:03:49Z</time></trkpt><trkpt lat="-34.08749293947966" lon="-71.96512797863647"><ele>53.0</ele><time>2026-03-30T19:03:56Z</time></trkpt><trkpt lat="-34.08746020982431" lon="-71.96519383695497"><ele>53.0</ele><time>2026-03-30T19:04:01Z</time></trkpt><trkpt lat="-34.0874269177452" lon="-71.9652591391636"><ele>53.0</ele><time>2026-03-30T19:04:06Z</time></trkpt><trkpt lat="-34.08738464853411" lon="-71.96533245665455"><ele>53.0</ele><time>2026-03-30T19:04:12Z</time></trkpt><trkpt lat="-34.087351168808354" lon="-71.96540281374538"><ele>48.714285714285715</ele><time>2026-03-30T19:04:17Z</time></trkpt><trkpt lat="-34.087321330991884" lon="-71.96547449570103"><ele>44.42857142857142</ele><time>2026-03-30T19:04:22Z</time></trkpt><trkpt lat="-34.08729875271212" lon="-71.96555175634987"><ele>40.14285714285714</ele><time>2026-03-30T19:04:27Z</time></trkpt><trkpt lat="-34.087263028869934" lon="-71.96563688924535"><ele>35.85714285714286</ele><time>2026-03-30T19:04:33Z</time></trkpt><trkpt lat="-34.087233845684096" lon="-71.96571008653763"><ele>31.57142857142857</ele><time>2026-03-30T19:04:38Z</time></trkpt><trkpt lat="-34.08722395459637" lon="-71.96579101553908"><ele>27.285714285714285</ele><time>2026-03-30T19:04:43Z</time></trkpt><trkpt lat="-34.0872574890445" lon="-71.96587603557727"><ele>23.0</ele><time>2026-03-30T19:04:49Z</time></trkpt><trkpt lat="-34.08730102988617" lon="-71.96594612469917"><ele>22.42857142857143</ele><time>2026-03-30T19:04:55Z</time></trkpt><trkpt lat="-34.08735154225617" lon="-71.96601784044866"><ele>21.857142857142854</ele><time>2026-03-30T19:05:02Z</time></trkpt><trkpt lat="-34.087397604188666" lon="-71.96607303600457"><ele>21.285714285714285</ele><time>2026-03-30T19:05:08Z</time></trkpt><trkpt lat="-34.08745262987441" lon="-71.96612416192336"><ele>20.714285714285715</ele><time>2026-03-30T19:05:15Z</time></trkpt><trkpt lat="-34.087520553644" lon="-71.9661373573384"><ele>20.142857142857146</ele><time>2026-03-30T19:05:21Z</time></trkpt><trkpt lat="-34.087582215330805" lon="-71.96612156055754"><ele>19.57142857142857</ele><time>2026-03-30T19:05:27Z</time></trkpt><trkpt lat="-34.08764291735896" lon="-71.96608687532795"><ele>19.0</ele><time>2026-03-30T19:05:33Z</time></trkpt><trkpt lat="-34.08768714944054" lon="-71.96600798952349"><ele>25.142857142857142</ele><time>2026-03-30T19:05:40Z</time></trkpt><trkpt lat="-34.08773820488492" lon="-71.96595720764684"><ele>31.28571428571429</ele><time>2026-03-30T19:05:47Z</time></trkpt><trkpt lat="-34.08781231314315" lon="-71.96596178574093"><ele>37.42857142857143</ele><time>2026-03-30T19:05:53Z</time></trkpt><trkpt lat="-34.08788272178547" lon="-71.96596482537312"><ele>43.57142857142857</ele><time>2026-03-30T19:06:00Z</time></trkpt><trkpt lat="-34.08794651938172" lon="-71.9659774695385"><ele>49.71428571428572</ele><time>2026-03-30T19:06:06Z</time></trkpt><trkpt lat="-34.08801623944711" lon="-71.96598173139057"><ele>55.85714285714286</ele><time>2026-03-30T19:06:13Z</time></trkpt><trkpt lat="-34.08808992890931" lon="-71.9660002989954"><ele>62.0</ele><time>2026-03-30T19:06:20Z</time></trkpt><trkpt lat="-34.088163766629926" lon="-71.96599527312802"><ele>62.0</ele><time>2026-03-30T19:06:27Z</time></trkpt><trkpt lat="-34.088221238368156" lon="-71.96595398439419"><ele>62.00000000000001</ele><time>2026-03-30T19:06:34Z</time></trkpt><trkpt lat="-34.08827441087669" lon="-71.96590922998494"><ele>62.0</ele><time>2026-03-30T19:06:40Z</time></trkpt><trkpt lat="-34.08832088252759" lon="-71.96584180760911"><ele>62.0</ele><time>2026-03-30T19:06:48Z</time></trkpt><trkpt lat="-34.0883714929578" lon="-71.96577496625558"><ele>62.00000000000001</ele><time>2026-03-30T19:06:54Z</time></trkpt><trkpt lat="-34.08841814054581" lon="-71.96571664743504"><ele>62.0</ele><time>2026-03-30T19:07:00Z</time></trkpt><trkpt lat="-34.08845910383239" lon="-71.9656473131802"><ele>62.0</ele><time>2026-03-30T19:07:07Z</time></trkpt><trkpt lat="-34.08852011481034" lon="-71.9656178697449"><ele>64.71428571428572</ele><time>2026-03-30T19:07:12Z</time></trkpt><trkpt lat="-34.08858783433602" lon="-71.96559589246233"><ele>67.42857142857143</ele><time>2026-03-30T19:07:18Z</time></trkpt><trkpt lat="-34.088659831487696" lon="-71.96556543683003"><ele>70.14285714285714</ele><time>2026-03-30T19:07:24Z</time></trkpt><trkpt lat="-34.088733551509954" lon="-71.96555689301827"><ele>72.85714285714286</ele><time>2026-03-30T19:07:31Z</time></trkpt><trkpt lat="-34.08879684105969" lon="-71.96555559950795"><ele>75.57142857142857</ele><time>2026-03-30T19:07:37Z</time></trkpt><trkpt lat="-34.0888597174019" lon="-71.96556455052908"><ele>78.28571428571429</ele><time>2026-03-30T19:07:41Z</time></trkpt><trkpt lat="-34.088922874660184" lon="-71.96561659619053"><ele>81.0</ele><time>2026-03-30T19:07:46Z</time></trkpt><trkpt lat="-34.0889692071229" lon="-71.96568092215904"><ele>81.0</ele><time>2026-03-30T19:07:51Z</time></trkpt><trkpt lat="-34.08901339335466" lon="-71.96575317425383"><ele>81.0</ele><time>2026-03-30T19:07:57Z</time></trkpt><trkpt lat="-34.089068700369516" lon="-71.96579707008036"><ele>81.0</ele><time>2026-03-30T19:08:02Z</time></trkpt><trkpt lat="-34.08914113086722" lon="-71.96583525585581"><ele>81.0</ele><time>2026-03-30T19:08:08Z</time></trkpt><trkpt lat="-34.08921045906919" lon="-71.96580933225087"><ele>81.0</ele><time>2026-03-30T19:08:13Z</time></trkpt><trkpt lat="-34.08927666920722" lon="-71.96580187959468"><ele>81.0</ele><time>2026-03-30T19:08:19Z</time></trkpt><trkpt lat="-34.08935018464471" lon="-71.96580579649189"><ele>81.0</ele><time>2026-03-30T19:08:24.999Z</time></trkpt><trkpt lat="-34.08941274058975" lon="-71.96584353772914"><ele>82.42857142857143</ele><time>2026-03-30T19:08:30Z</time></trkpt><trkpt lat="-34.08947362576731" lon="-71.96587902969362"><ele>83.85714285714286</ele><time>2026-03-30T19:08:35Z</time></trkpt><trkpt lat="-34.08953039439314" lon="-71.96592017208114"><ele>85.28571428571428</ele><time>2026-03-30T19:08:40Z</time></trkpt><trkpt lat="-34.089593141033866" lon="-71.965960829247"><ele>86.71428571428572</ele><time>2026-03-30T19:08:45Z</time></trkpt><trkpt lat="-34.089653661089244" lon="-71.96600648438564"><ele>88.14285714285714</ele><time>2026-03-30T19:08:50Z</time></trkpt><trkpt lat="-34.08971003029135" lon="-71.96606229581923"><ele>89.57142857142857</ele><time>2026-03-30T19:08:56Z</time></trkpt><trkpt lat="-34.089761557225934" lon="-71.96610869889892"><ele>91.0</ele><time>2026-03-30T19:09:01Z</time></trkpt><trkpt lat="-34.08982947105952" lon="-71.96614786307185"><ele>91.0</ele><time>2026-03-30T19:09:07Z</time></trkpt><trkpt lat="-34.089890012119355" lon="-71.96617094253585"><ele>91.0</ele><time>2026-03-30T19:09:12Z</time></trkpt><trkpt lat="-34.08995067040604" lon="-71.96619963211069"><ele>91.0</ele><time>2026-03-30T19:09:17Z</time></trkpt><trkpt lat="-34.09002302799051" lon="-71.96620468818587"><ele>91.0</ele><time>2026-03-30T19:09:23Z</time></trkpt><trkpt lat="-34.09008113509753" lon="-71.96623736037535"><ele>91.0</ele><time>2026-03-30T19:09:27Z</time></trkpt><trkpt lat="-34.090147208795436" lon="-71.96626917027733"><ele>91.0</ele><time>2026-03-30T19:09:32Z</time></trkpt><trkpt lat="-34.0902083524431" lon="-71.96630724679443"><ele>91.0</ele><time>2026-03-30T19:09:37Z</time></trkpt><trkpt lat="-34.09026634741311" lon="-71.96634701036871"><ele>92.71428571428571</ele><time>2026-03-30T19:09:42Z</time></trkpt><trkpt lat="-34.090324319205344" lon="-71.96639403097626"><ele>94.42857142857143</ele><time>2026-03-30T19:09:47Z</time></trkpt><trkpt lat="-34.09037041322322" lon="-71.96645242046446"><ele>96.14285714285714</ele><time>2026-03-30T19:09:52Z</time></trkpt><trkpt lat="-34.09043661205471" lon="-71.96651165785883"><ele>97.85714285714286</ele><time>2026-03-30T19:09:58Z</time></trkpt><trkpt lat="-34.09048445569994" lon="-71.96656266379541"><ele>99.57142857142857</ele><time>2026-03-30T19:10:03Z</time></trkpt><trkpt lat="-34.09054523929441" lon="-71.96658803393724"><ele>101.28571428571428</ele><time>2026-03-30T19:10:08Z</time></trkpt><trkpt lat="-34.090609243440085" lon="-71.966611430875"><ele>103.0</ele><time>2026-03-30T19:10:13Z</time></trkpt><trkpt lat="-34.09067495739" lon="-71.96661786974221"><ele>102.99999999999999</ele><time>2026-03-30T19:10:18Z</time></trkpt><trkpt lat="-34.090741195733855" lon="-71.96663546292521"><ele>103.0</ele><time>2026-03-30T19:10:23Z</time></trkpt><trkpt lat="-34.09082464375735" lon="-71.96665567448552"><ele>103.0</ele><time>2026-03-30T19:10:29Z</time></trkpt><trkpt lat="-34.09089062474202" lon="-71.96668562147343"><ele>103.0</ele><time>2026-03-30T19:10:35Z</time></trkpt><trkpt lat="-34.090940804235295" lon="-71.96673404009894"><ele>103.0</ele><time>2026-03-30T19:10:40Z</time></trkpt><trkpt lat="-34.09100268245537" lon="-71.96676964999548"><ele>102.99999999999999</ele><time>2026-03-30T19:10:46Z</time></trkpt><trkpt lat="-34.09106316414602" lon="-71.9668060858026"><ele>103.0</ele><time>2026-03-30T19:10:50Z</time></trkpt><trkpt lat="-34.09112591761553" lon="-71.96683246971622"><ele>104.42857142857142</ele><time>2026-03-30T19:10:56Z</time></trkpt><trkpt lat="-34.09119137109321" lon="-71.9668723177172"><ele>105.85714285714286</ele><time>2026-03-30T19:11:02Z</time></trkpt><trkpt lat="-34.091260037584604" lon="-71.96688074990753"><ele>107.28571428571428</ele><time>2026-03-30T19:11:08Z</time></trkpt><trkpt lat="-34.09132733733479" lon="-71.96690266459787"><ele>108.71428571428571</ele><time>2026-03-30T19:11:14Z</time></trkpt><trkpt lat="-34.091396033940526" lon="-71.96691176494924"><ele>110.14285714285714</ele><time>2026-03-30T19:11:20Z</time></trkpt><trkpt lat="-34.09146856247212" lon="-71.96693511871625"><ele>111.57142857142857</ele><time>2026-03-30T19:11:26Z</time></trkpt><trkpt lat="-34.091537509293886" lon="-71.96694369818242"><ele>113.0</ele><time>2026-03-30T19:11:32Z</time></trkpt><trkpt lat="-34.09161515254052" lon="-71.96695242117222"><ele>114.0</ele><time>2026-03-30T19:11:38Z</time></trkpt><trkpt lat="-34.091686742139274" lon="-71.96696077471724"><ele>115.0</ele><time>2026-03-30T19:11:45Z</time></trkpt><trkpt lat="-34.091747892324236" lon="-71.96697997422899"><ele>116.0</ele><time>2026-03-30T19:11:50Z</time></trkpt><trkpt lat="-34.09181831041489" lon="-71.96700005074679"><ele>117.0</ele><time>2026-03-30T19:11:56Z</time></trkpt><trkpt lat="-34.091882653847634" lon="-71.96702021999518"><ele>118.0</ele><time>2026-03-30T19:12:01Z</time></trkpt><trkpt lat="-34.091949818729" lon="-71.96705664802673"><ele>119.0</ele><time>2026-03-30T19:12:07Z</time></trkpt><trkpt lat="-34.0920137205255" lon="-71.96710166937575"><ele>120.0</ele><time>2026-03-30T19:12:12.999Z</time></trkpt><trkpt lat="-34.0920654332845" lon="-71.96714802380302"><ele>120.0</ele><time>2026-03-30T19:12:17.999Z</time></trkpt><trkpt lat="-34.0921230534497" lon="-71.9672088305224"><ele>120.0</ele><time>2026-03-30T19:12:22.999Z</time></trkpt><trkpt lat="-34.09218048891124" lon="-71.96726449444687"><ele>120.0</ele><time>2026-03-30T19:12:28.999Z</time></trkpt><trkpt lat="-34.09222078256823" lon="-71.96732973846984"><ele>120.0</ele><time>2026-03-30T19:12:33.999Z</time></trkpt><trkpt lat="-34.09227404615262" lon="-71.96737499961496"><ele>120.0</ele><time>2026-03-30T19:12:38.999Z</time></trkpt><trkpt lat="-34.09234499793098" lon="-71.9674148380043"><ele>120.0</ele><time>2026-03-30T19:12:45Z</time></trkpt><trkpt lat="-34.0924076282189" lon="-71.96743486217584"><ele>120.0</ele><time>2026-03-30T19:12:50Z</time></trkpt><trkpt lat="-34.092479868028036" lon="-71.9674587746965"><ele>120.14285714285714</ele><time>2026-03-30T19:12:56Z</time></trkpt><trkpt lat="-34.092545533537994" lon="-71.9674753042231"><ele>120.28571428571428</ele><time>2026-03-30T19:13:01Z</time></trkpt><trkpt lat="-34.09261283419761" lon="-71.96751968714061"><ele>120.42857142857142</ele><time>2026-03-30T19:13:06Z</time></trkpt><trkpt lat="-34.09266946464245" lon="-71.96755299128708"><ele>120.57142857142857</ele><time>2026-03-30T19:13:11Z</time></trkpt><trkpt lat="-34.09273507410215" lon="-71.96760468334938"><ele>120.7142857142857</ele><time>2026-03-30T19:13:17Z</time></trkpt><trkpt lat="-34.092800623966625" lon="-71.96762545357844"><ele>120.85714285714285</ele><time>2026-03-30T19:13:22Z</time></trkpt><trkpt lat="-34.09286707616484" lon="-71.9676357928699"><ele>121.0</ele><time>2026-03-30T19:13:27Z</time></trkpt><trkpt lat="-34.09293926638283" lon="-71.96762268217404"><ele>121.00000000000001</ele><time>2026-03-30T19:13:32Z</time></trkpt><trkpt lat="-34.09300981231168" lon="-71.96760379119118"><ele>121.0</ele><time>2026-03-30T19:13:37Z</time></trkpt><trkpt lat="-34.09308992264752" lon="-71.96759035469633"><ele>121.0</ele><time>2026-03-30T19:13:43Z</time></trkpt><trkpt lat="-34.093157727589485" lon="-71.96758770488961"><ele>121.0</ele><time>2026-03-30T19:13:48Z</time></trkpt><trkpt lat="-34.093231843272996" lon="-71.9676020661022"><ele>121.00000000000001</ele><time>2026-03-30T19:13:53Z</time></trkpt><trkpt lat="-34.09331461318678" lon="-71.96761105924662"><ele>121.0</ele><time>2026-03-30T19:13:59Z</time></trkpt><trkpt lat="-34.09338094895608" lon="-71.96764568070257"><ele>122.14285714285714</ele><time>2026-03-30T19:14:04Z</time></trkpt><trkpt lat="-34.09345176004555" lon="-71.96766633324918"><ele>123.28571428571428</ele><time>2026-03-30T19:14:09Z</time></trkpt><trkpt lat="-34.09351656239034" lon="-71.967705579859"><ele>124.42857142857142</ele><time>2026-03-30T19:14:14Z</time></trkpt><trkpt lat="-34.09358921471305" lon="-71.96770791201843"><ele>125.57142857142856</ele><time>2026-03-30T19:14:19Z</time></trkpt><trkpt lat="-34.0936553917119" lon="-71.96769994484906"><ele>126.71428571428571</ele><time>2026-03-30T19:14:24Z</time></trkpt><trkpt lat="-34.093737093695324" lon="-71.96769949267279"><ele>127.85714285714283</ele><time>2026-03-30T19:14:30Z</time></trkpt><trkpt lat="-34.09381331841442" lon="-71.96770082354372"><ele>129.0</ele><time>2026-03-30T19:14:34.999Z</time></trkpt><trkpt lat="-34.09388107291948" lon="-71.9676871256097"><ele>128.99999999999997</ele><time>2026-03-30T19:14:40.999Z</time></trkpt><trkpt lat="-34.0939575966977" lon="-71.96767176971206"><ele>129.0</ele><time>2026-03-30T19:14:47Z</time></trkpt><trkpt lat="-34.09401914817861" lon="-71.96764710819653"><ele>129.0</ele><time>2026-03-30T19:14:52Z</time></trkpt><trkpt lat="-34.094084282940656" lon="-71.96762439909456"><ele>129.0</ele><time>2026-03-30T19:14:57Z</time></trkpt><trkpt lat="-34.0941576400193" lon="-71.96760460359212"><ele>129.0</ele><time>2026-03-30T19:15:03Z</time></trkpt><trkpt lat="-34.094221298063445" lon="-71.96757935259946"><ele>128.99999999999997</ele><time>2026-03-30T19:15:08Z</time></trkpt><trkpt lat="-34.0942885898324" lon="-71.96756471429792"><ele>129.0</ele><time>2026-03-30T19:15:13Z</time></trkpt><trkpt lat="-34.09436274056926" lon="-71.96754422371377"><ele>128.99999999999997</ele><time>2026-03-30T19:15:18Z</time></trkpt><trkpt lat="-34.094432804071936" lon="-71.96753422427454"><ele>129.0</ele><time>2026-03-30T19:15:24Z</time></trkpt><trkpt lat="-34.0945135533256" lon="-71.96750425847377"><ele>129.0</ele><time>2026-03-30T19:15:29Z</time></trkpt><trkpt lat="-34.0945853460779" lon="-71.96749884632459"><ele>129.0</ele><time>2026-03-30T19:15:35Z</time></trkpt><trkpt lat="-34.09465570338306" lon="-71.96750747824747"><ele>129.0</ele><time>2026-03-30T19:15:40Z</time></trkpt><trkpt lat="-34.09471910356114" lon="-71.96750761949907"><ele>128.99999999999997</ele><time>2026-03-30T19:15:44Z</time></trkpt><trkpt lat="-34.09478971001439" lon="-71.96752327451684"><ele>129.0</ele><time>2026-03-30T19:15:49Z</time></trkpt><trkpt lat="-34.09484917539827" lon="-71.96755030161596"><ele>128.99999999999997</ele><time>2026-03-30T19:15:54Z</time></trkpt><trkpt lat="-34.094916980426454" lon="-71.96757932369086"><ele>129.0</ele><time>2026-03-30T19:15:59Z</time></trkpt><trkpt lat="-34.094985562696195" lon="-71.96757974890332"><ele>129.0</ele><time>2026-03-30T19:16:04Z</time></trkpt><trkpt lat="-34.09505560820185" lon="-71.96755497837748"><ele>129.0</ele><time>2026-03-30T19:16:09Z</time></trkpt><trkpt lat="-34.09511599521949" lon="-71.96749872782975"><ele>129.0</ele><time>2026-03-30T19:16:14Z</time></trkpt><trkpt lat="-34.095169271161375" lon="-71.96744669918881"><ele>128.99999999999997</ele><time>2026-03-30T19:16:19Z</time></trkpt><trkpt lat="-34.09524178949848" lon="-71.96742362200007"><ele>129.0</ele><time>2026-03-30T19:16:25Z</time></trkpt><trkpt lat="-34.095308433307345" lon="-71.96746601963042"><ele>130.42857142857142</ele><time>2026-03-30T19:16:29.999Z</time></trkpt><trkpt lat="-34.09536563394857" lon="-71.96751270697432"><ele>131.85714285714286</ele><time>2026-03-30T19:16:34.999Z</time></trkpt><trkpt lat="-34.09542057758667" lon="-71.96756169178308"><ele>133.28571428571428</ele><time>2026-03-30T19:16:39.999Z</time></trkpt><trkpt lat="-34.095490184145234" lon="-71.96758462961866"><ele>134.71428571428572</ele><time>2026-03-30T19:16:44.999Z</time></trkpt><trkpt lat="-34.09555962460993" lon="-71.9675900597403"><ele>136.14285714285714</ele><time>2026-03-30T19:16:49.999Z</time></trkpt><trkpt lat="-34.0956225552981" lon="-71.96756993600744"><ele>137.57142857142856</ele><time>2026-03-30T19:16:55Z</time></trkpt><trkpt lat="-34.095690578461195" lon="-71.96754647258186"><ele>139.0</ele><time>2026-03-30T19:17:00Z</time></trkpt><trkpt lat="-34.09575624535561" lon="-71.96750350170444"><ele>139.14285714285714</ele><time>2026-03-30T19:17:05Z</time></trkpt><trkpt lat="-34.09582183701834" lon="-71.9674673180992"><ele>139.28571428571428</ele><time>2026-03-30T19:17:10Z</time></trkpt><trkpt lat="-34.095894873444664" lon="-71.96743562758368"><ele>139.42857142857144</ele><time>2026-03-30T19:17:16Z</time></trkpt><trkpt lat="-34.09596376893324" lon="-71.96742354241874"><ele>139.57142857142856</ele><time>2026-03-30T19:17:21Z</time></trkpt><trkpt lat="-34.09602661474791" lon="-71.9674325672537"><ele>139.71428571428572</ele><time>2026-03-30T19:17:25Z</time></trkpt><trkpt lat="-34.09609312146167" lon="-71.96745343856249"><ele>139.85714285714286</ele><time>2026-03-30T19:17:30Z</time></trkpt><trkpt lat="-34.096167197309356" lon="-71.96745335199078"><ele>140.0</ele><time>2026-03-30T19:17:35Z</time></trkpt><trkpt lat="-34.09623560410351" lon="-71.96744400095741"><ele>140.0</ele><time>2026-03-30T19:17:40Z</time></trkpt><trkpt lat="-34.09630514320032" lon="-71.96742026387345"><ele>140.0</ele><time>2026-03-30T19:17:45Z</time></trkpt><trkpt lat="-34.09636942442538" lon="-71.96740943294442"><ele>140.0</ele><time>2026-03-30T19:17:49Z</time></trkpt><trkpt lat="-34.09643522997357" lon="-71.96739671779441"><ele>140.0</ele><time>2026-03-30T19:17:54Z</time></trkpt><trkpt lat="-34.096500277124676" lon="-71.96738610388961"><ele>140.0</ele><time>2026-03-30T19:17:59Z</time></trkpt><trkpt lat="-34.096570260184784" lon="-71.96737066516714"><ele>140.0</ele><time>2026-03-30T19:18:04Z</time></trkpt><trkpt lat="-34.09664443036678" lon="-71.96736493519468"><ele>140.0</ele><time>2026-03-30T19:18:09Z</time></trkpt><trkpt lat="-34.09672428030744" lon="-71.96735135598777"><ele>140.0</ele><time>2026-03-30T19:18:14Z</time></trkpt><trkpt lat="-34.09679930327489" lon="-71.96733270064232"><ele>140.0</ele><time>2026-03-30T19:18:20Z</time></trkpt><trkpt lat="-34.09686533323807" lon="-71.96732116693781"><ele>140.0</ele><time>2026-03-30T19:18:25Z</time></trkpt><trkpt lat="-34.09692752488171" lon="-71.96730835006821"><ele>140.0</ele><time>2026-03-30T19:18:29.999Z</time></trkpt><trkpt lat="-34.09699694626716" lon="-71.96729736188576"><ele>140.0</ele><time>2026-03-30T19:18:34.999Z</time></trkpt><trkpt lat="-34.097058307912235" lon="-71.96726283790959"><ele>140.0</ele><time>2026-03-30T19:18:39.999Z</time></trkpt><trkpt lat="-34.09711710261002" lon="-71.96721717488536"><ele>140.0</ele><time>2026-03-30T19:18:44.999Z</time></trkpt><trkpt lat="-34.09716818648264" lon="-71.96713503585023"><ele>140.0</ele><time>2026-03-30T19:18:50.999Z</time></trkpt><trkpt lat="-34.097217022291055" lon="-71.96706684893883"><ele>140.0</ele><time>2026-03-30T19:18:56.999Z</time></trkpt><trkpt lat="-34.09726392844894" lon="-71.9669998764335"><ele>140.0</ele><time>2026-03-30T19:19:02Z</time></trkpt><trkpt lat="-34.09730364476272" lon="-71.96692876019004"><ele>140.0</ele><time>2026-03-30T19:19:07Z</time></trkpt><trkpt lat="-34.09734127251034" lon="-71.96686735107309"><ele>140.0</ele><time>2026-03-30T19:19:12Z</time></trkpt><trkpt lat="-34.09737728567919" lon="-71.96679554282865"><ele>140.0</ele><time>2026-03-30T19:19:18Z</time></trkpt><trkpt lat="-34.09742257924363" lon="-71.96674071895414"><ele>140.0</ele><time>2026-03-30T19:19:23Z</time></trkpt><trkpt lat="-34.0974655163861" lon="-71.96667821434994"><ele>140.28571428571428</ele><time>2026-03-30T19:19:29Z</time></trkpt><trkpt lat="-34.09751836707206" lon="-71.96663684670504"><ele>140.57142857142856</ele><time>2026-03-30T19:19:35Z</time></trkpt><trkpt lat="-34.09758294033091" lon="-71.96659796134963"><ele>140.85714285714286</ele><time>2026-03-30T19:19:41Z</time></trkpt><trkpt lat="-34.09764421168899" lon="-71.96657381938714"><ele>141.14285714285714</ele><time>2026-03-30T19:19:46Z</time></trkpt><trkpt lat="-34.09770863894801" lon="-71.96654214700831"><ele>141.42857142857142</ele><time>2026-03-30T19:19:53Z</time></trkpt><trkpt lat="-34.097773862398746" lon="-71.96652900577021"><ele>141.71428571428572</ele><time>2026-03-30T19:19:58Z</time></trkpt><trkpt lat="-34.09784020578637" lon="-71.96650490835627"><ele>142.0</ele><time>2026-03-30T19:20:04Z</time></trkpt><trkpt lat="-34.097890779846374" lon="-71.9664547121553"><ele>142.0</ele><time>2026-03-30T19:20:10Z</time></trkpt><trkpt lat="-34.0979473490023" lon="-71.96641329279349"><ele>142.0</ele><time>2026-03-30T19:20:16Z</time></trkpt><trkpt lat="-34.0980063090301" lon="-71.96635920479828"><ele>142.0</ele><time>2026-03-30T19:20:22Z</time></trkpt><trkpt lat="-34.098057458272564" lon="-71.96630855978393"><ele>142.0</ele><time>2026-03-30T19:20:27Z</time></trkpt><trkpt lat="-34.09810633772282" lon="-71.966260507391"><ele>142.0</ele><time>2026-03-30T19:20:31.999Z</time></trkpt><trkpt lat="-34.09817003375779" lon="-71.96621578588126"><ele>142.0</ele><time>2026-03-30T19:20:37.999Z</time></trkpt><trkpt lat="-34.098233163527" lon="-71.96618811509593"><ele>142.0</ele><time>2026-03-30T19:20:43.999Z</time></trkpt><trkpt lat="-34.09829918522318" lon="-71.966177579592"><ele>142.57142857142856</ele><time>2026-03-30T19:20:48.999Z</time></trkpt><trkpt lat="-34.09836425775784" lon="-71.96617909278174"><ele>143.14285714285714</ele><time>2026-03-30T19:20:53.999Z</time></trkpt><trkpt lat="-34.09843690657047" lon="-71.96618140293923"><ele>143.71428571428572</ele><time>2026-03-30T19:20:58.999Z</time></trkpt><trkpt lat="-34.09850055193502" lon="-71.96618727030312"><ele>144.28571428571428</ele><time>2026-03-30T19:21:04Z</time></trkpt><trkpt lat="-34.0985726357596" lon="-71.96618352708735"><ele>144.85714285714286</ele><time>2026-03-30T19:21:10Z</time></trkpt><trkpt lat="-34.098635989990704" lon="-71.9661888539624"><ele>145.42857142857142</ele><time>2026-03-30T19:21:15Z</time></trkpt><trkpt lat="-34.098710867998925" lon="-71.96618173472946"><ele>146.0</ele><time>2026-03-30T19:21:21Z</time></trkpt><trkpt lat="-34.09878249610283" lon="-71.96617969202792"><ele>146.0</ele><time>2026-03-30T19:21:26Z</time></trkpt><trkpt lat="-34.09885014383813" lon="-71.9661665560524"><ele>146.0</ele><time>2026-03-30T19:21:31Z</time></trkpt><trkpt lat="-34.09892434813915" lon="-71.96614953302613"><ele>146.0</ele><time>2026-03-30T19:21:37Z</time></trkpt><trkpt lat="-34.09899219829505" lon="-71.96613396034917"><ele>146.0</ele><time>2026-03-30T19:21:42Z</time></trkpt><trkpt lat="-34.09905654225625" lon="-71.96611554217033"><ele>146.0</ele><time>2026-03-30T19:21:47Z</time></trkpt><trkpt lat="-34.09912095928345" lon="-71.96607819093451"><ele>146.0</ele><time>2026-03-30T19:21:52Z</time></trkpt><trkpt lat="-34.099173626977425" lon="-71.96601759834927"><ele>146.0</ele><time>2026-03-30T19:21:57Z</time></trkpt><trkpt lat="-34.099232628214715" lon="-71.96597205430731"><ele>146.42857142857142</ele><time>2026-03-30T19:22:03Z</time></trkpt><trkpt lat="-34.09928747549246" lon="-71.96592519112119"><ele>146.85714285714286</ele><time>2026-03-30T19:22:08Z</time></trkpt><trkpt lat="-34.09934893566014" lon="-71.96596319405332"><ele>147.28571428571428</ele><time>2026-03-30T19:22:17Z</time></trkpt><trkpt lat="-34.09940112071054" lon="-71.96602482961116"><ele>147.71428571428572</ele><time>2026-03-30T19:22:34Z</time></trkpt><trkpt lat="-34.09944379612639" lon="-71.96608611903227"><ele>148.14285714285714</ele><time>2026-03-30T19:22:38.999Z</time></trkpt><trkpt lat="-34.09949542761071" lon="-71.96615765147016"><ele>148.57142857142856</ele><time>2026-03-30T19:22:43.999Z</time></trkpt><trkpt lat="-34.09955728352101" lon="-71.96620844060753"><ele>149.0</ele><time>2026-03-30T19:22:50.999Z</time></trkpt><trkpt lat="-34.09962781691712" lon="-71.96622817996388"><ele>149.0</ele><time>2026-03-30T19:22:55.999Z</time></trkpt><trkpt lat="-34.09969935182818" lon="-71.96623027433422"><ele>149.0</ele><time>2026-03-30T19:23:00.999Z</time></trkpt><trkpt lat="-34.09976795715152" lon="-71.96620650380952"><ele>149.0</ele><time>2026-03-30T19:23:05.999Z</time></trkpt><trkpt lat="-34.09983239025797" lon="-71.96619919108598"><ele>149.0</ele><time>2026-03-30T19:23:11Z</time></trkpt><trkpt lat="-34.09990467410118" lon="-71.9661887678432"><ele>149.0</ele><time>2026-03-30T19:23:17Z</time></trkpt><trkpt lat="-34.099979332915545" lon="-71.96618160950257"><ele>149.0</ele><time>2026-03-30T19:23:23Z</time></trkpt><trkpt lat="-34.10004264221115" lon="-71.96617854889664"><ele>149.0</ele><time>2026-03-30T19:23:28Z</time></trkpt><trkpt lat="-34.100116758198965" lon="-71.96618860340071"><ele>148.85714285714286</ele><time>2026-03-30T19:23:34Z</time></trkpt><trkpt lat="-34.100183129505936" lon="-71.96618715831825"><ele>148.7142857142857</ele><time>2026-03-30T19:23:39Z</time></trkpt><trkpt lat="-34.100251757889815" lon="-71.96618798079916"><ele>148.57142857142856</ele><time>2026-03-30T19:23:44Z</time></trkpt><trkpt lat="-34.1003226387898" lon="-71.96620982541367"><ele>148.42857142857142</ele><time>2026-03-30T19:23:50Z</time></trkpt><trkpt lat="-34.1003934237569" lon="-71.96621594825044"><ele>148.28571428571428</ele><time>2026-03-30T19:23:55Z</time></trkpt><trkpt lat="-34.10045906005931" lon="-71.96622883941853"><ele>148.14285714285714</ele><time>2026-03-30T19:24:00Z</time></trkpt><trkpt lat="-34.10052254055918" lon="-71.96622929404789"><ele>148.0</ele><time>2026-03-30T19:24:05Z</time></trkpt><trkpt lat="-34.10058402090577" lon="-71.96625742844591"><ele>148.0</ele><time>2026-03-30T19:24:10Z</time></trkpt><trkpt lat="-34.10063325859311" lon="-71.96630917870985"><ele>148.0</ele><time>2026-03-30T19:24:15.999Z</time></trkpt><trkpt lat="-34.10066261214354" lon="-71.96638834771122"><ele>148.0</ele><time>2026-03-30T19:24:22.999Z</time></trkpt><trkpt lat="-34.10067054688519" lon="-71.966464118688"><ele>148.0</ele><time>2026-03-30T19:24:29.999Z</time></trkpt><trkpt lat="-34.100661266904744" lon="-71.9665457923056"><ele>148.0</ele><time>2026-03-30T19:24:36.999Z</time></trkpt><trkpt lat="-34.100652006586394" lon="-71.96662875506908"><ele>148.0</ele><time>2026-03-30T19:24:41.999Z</time></trkpt><trkpt lat="-34.100678552053644" lon="-71.96671014981024"><ele>148.0</ele><time>2026-03-30T19:24:48.999Z</time></trkpt><trkpt lat="-34.10074689038681" lon="-71.96673914034521"><ele>147.14285714285714</ele><time>2026-03-30T19:24:56.999Z</time></trkpt><trkpt lat="-34.10080848713898" lon="-71.96677375604754"><ele>146.28571428571428</ele><time>2026-03-30T19:25:02.999Z</time></trkpt><trkpt lat="-34.10088545338296" lon="-71.96676566085559"><ele>145.42857142857142</ele><time>2026-03-30T19:25:08.999Z</time></trkpt><trkpt lat="-34.100956732434305" lon="-71.96677443081931"><ele>144.57142857142856</ele><time>2026-03-30T19:25:13.999Z</time></trkpt><trkpt lat="-34.10102165145948" lon="-71.96681070122334"><ele>143.7142857142857</ele><time>2026-03-30T19:25:19Z</time></trkpt><trkpt lat="-34.10103686862413" lon="-71.96689426534361"><ele>142.85714285714286</ele><time>2026-03-30T19:25:24Z</time></trkpt><trkpt lat="-34.10104763553385" lon="-71.96696986599329"><ele>142.0</ele><time>2026-03-30T19:25:29Z</time></trkpt><trkpt lat="-34.10108793575077" lon="-71.96703547339524"><ele>142.0</ele><time>2026-03-30T19:25:38Z</time></trkpt><trkpt lat="-34.10116135170483" lon="-71.96705822488359"><ele>142.0</ele><time>2026-03-30T19:25:44Z</time></trkpt><trkpt lat="-34.10119352961822" lon="-71.96712798622355"><ele>142.0</ele><time>2026-03-30T19:25:50Z</time></trkpt><trkpt lat="-34.10123735468183" lon="-71.96718711252667"><ele>142.0</ele><time>2026-03-30T19:25:56Z</time></trkpt><trkpt lat="-34.10125795234418" lon="-71.96727586393578"><ele>142.0</ele><time>2026-03-30T19:26:02Z</time></trkpt><trkpt lat="-34.101307291340916" lon="-71.9673338925585"><ele>142.0</ele><time>2026-03-30T19:26:09Z</time></trkpt><trkpt lat="-34.101357446257786" lon="-71.96738382542571"><ele>142.0</ele><time>2026-03-30T19:26:14Z</time></trkpt><trkpt lat="-34.10140447023961" lon="-71.96743565725123"><ele>142.0</ele><time>2026-03-30T19:26:19Z</time></trkpt><trkpt lat="-34.101469563200915" lon="-71.96748677895644"><ele>142.0</ele><time>2026-03-30T19:26:25Z</time></trkpt><trkpt lat="-34.10152952356832" lon="-71.96753560543621"><ele>142.0</ele><time>2026-03-30T19:26:31Z</time></trkpt><trkpt lat="-34.10158047354387" lon="-71.96758323941434"><ele>142.0</ele><time>2026-03-30T19:26:35.999Z</time></trkpt><trkpt lat="-34.101639695982826" lon="-71.96762369823642"><ele>142.0</ele><time>2026-03-30T19:26:40.999Z</time></trkpt><trkpt lat="-34.10170589951215" lon="-71.96765140515306"><ele>142.0</ele><time>2026-03-30T19:26:45.999Z</time></trkpt><trkpt lat="-34.10176220255099" lon="-71.96770064222936"><ele>142.0</ele><time>2026-03-30T19:26:51.999Z</time></trkpt><trkpt lat="-34.10180969984964" lon="-71.9677577802167"><ele>140.28571428571428</ele><time>2026-03-30T19:26:57.999Z</time></trkpt><trkpt lat="-34.1018322835663" lon="-71.9678369234585"><ele>138.57142857142856</ele><time>2026-03-30T19:27:02.999Z</time></trkpt><trkpt lat="-34.10184959098903" lon="-71.96791714547864"><ele>136.85714285714286</ele><time>2026-03-30T19:27:07.999Z</time></trkpt><trkpt lat="-34.101896218180286" lon="-71.96797944690861"><ele>135.14285714285714</ele><time>2026-03-30T19:27:12.999Z</time></trkpt><trkpt lat="-34.101947619281994" lon="-71.9680257793137"><ele>133.42857142857144</ele><time>2026-03-30T19:27:18.999Z</time></trkpt><trkpt lat="-34.102004161462844" lon="-71.96806864933248"><ele>131.71428571428572</ele><time>2026-03-30T19:27:25Z</time></trkpt><trkpt lat="-34.102064029482186" lon="-71.96810496221087"><ele>130.0</ele><time>2026-03-30T19:27:30Z</time></trkpt><trkpt lat="-34.10211681621035" lon="-71.96815245415704"><ele>130.00000000000003</ele><time>2026-03-30T19:27:36Z</time></trkpt><trkpt lat="-34.10217009426511" lon="-71.96820363811435"><ele>130.0</ele><time>2026-03-30T19:27:43Z</time></trkpt><trkpt lat="-34.10222153207295" lon="-71.96825349910584"><ele>130.0</ele><time>2026-03-30T19:27:48Z</time></trkpt><trkpt lat="-34.102269205777276" lon="-71.96831803104182"><ele>130.0</ele><time>2026-03-30T19:27:54Z</time></trkpt><trkpt lat="-34.102307448720225" lon="-71.96838621617027"><ele>130.0</ele><time>2026-03-30T19:27:59Z</time></trkpt><trkpt lat="-34.102330582960946" lon="-71.96845951807178"><ele>130.00000000000003</ele><time>2026-03-30T19:28:04Z</time></trkpt><trkpt lat="-34.10233241166744" lon="-71.96853750991878"><ele>130.0</ele><time>2026-03-30T19:28:08Z</time></trkpt><trkpt lat="-34.10234603921422" lon="-71.9686247284344"><ele>129.71428571428572</ele><time>2026-03-30T19:28:15Z</time></trkpt><trkpt lat="-34.10236409946697" lon="-71.96870339999927"><ele>129.42857142857144</ele><time>2026-03-30T19:28:20Z</time></trkpt><trkpt lat="-34.102399986244556" lon="-71.96877684618968"><ele>129.14285714285714</ele><time>2026-03-30T19:28:26Z</time></trkpt><trkpt lat="-34.10245066467082" lon="-71.96883564434526"><ele>128.85714285714286</ele><time>2026-03-30T19:28:32Z</time></trkpt><trkpt lat="-34.10251084174539" lon="-71.96888717943494"><ele>128.57142857142856</ele><time>2026-03-30T19:28:38Z</time></trkpt><trkpt lat="-34.1025717180037" lon="-71.96892615346876"><ele>128.28571428571428</ele><time>2026-03-30T19:28:44Z</time></trkpt><trkpt lat="-34.102634976890165" lon="-71.96893871649641"><ele>128.0</ele><time>2026-03-30T19:28:50Z</time></trkpt><trkpt lat="-34.10270415646324" lon="-71.96895050156144"><ele>128.0</ele><time>2026-03-30T19:28:58Z</time></trkpt><trkpt lat="-34.102768705049556" lon="-71.96896345766777"><ele>127.99999999999999</ele><time>2026-03-30T19:29:05Z</time></trkpt><trkpt lat="-34.10280184097253" lon="-71.96904863928418"><ele>128.0</ele><time>2026-03-30T19:29:10.999Z</time></trkpt><trkpt lat="-34.10281701998642" lon="-71.96912254951796"><ele>128.0</ele><time>2026-03-30T19:29:16.999Z</time></trkpt><trkpt lat="-34.10287796592569" lon="-71.9691632386414"><ele>127.99999999999999</ele><time>2026-03-30T19:29:22.999Z</time></trkpt><trkpt lat="-34.10294553281054" lon="-71.96920382831594"><ele>128.0</ele><time>2026-03-30T19:29:30Z</time></trkpt><trkpt lat="-34.102999747420675" lon="-71.96925876171676"><ele>128.0</ele><time>2026-03-30T19:29:36Z</time></trkpt><trkpt lat="-34.10304950120562" lon="-71.96931437309757"><ele>127.42857142857142</ele><time>2026-03-30T19:29:42Z</time></trkpt><trkpt lat="-34.10309285759016" lon="-71.96937232633758"><ele>126.85714285714285</ele><time>2026-03-30T19:29:49Z</time></trkpt><trkpt lat="-34.10311034056369" lon="-71.96944824619749"><ele>126.28571428571428</ele><time>2026-03-30T19:29:54Z</time></trkpt><trkpt lat="-34.10314229014134" lon="-71.96951458111685"><ele>125.71428571428572</ele><time>2026-03-30T19:30:00Z</time></trkpt><trkpt lat="-34.10320396443477" lon="-71.96955650845976"><ele>125.14285714285715</ele><time>2026-03-30T19:30:08Z</time></trkpt><trkpt lat="-34.103268224679134" lon="-71.96959204183614"><ele>124.57142857142858</ele><time>2026-03-30T19:30:15Z</time></trkpt><trkpt lat="-34.10333390910775" lon="-71.96961336741157"><ele>124.0</ele><time>2026-03-30T19:30:20Z</time></trkpt><trkpt lat="-34.10336332627386" lon="-71.9696872190306"><ele>123.71428571428572</ele><time>2026-03-30T19:30:27Z</time></trkpt><trkpt lat="-34.1033851076731" lon="-71.96976722993253"><ele>123.42857142857144</ele><time>2026-03-30T19:30:33Z</time></trkpt><trkpt lat="-34.10340176821679" lon="-71.96984400868435"><ele>123.14285714285714</ele><time>2026-03-30T19:30:39Z</time></trkpt><trkpt lat="-34.103449077451764" lon="-71.96990244873163"><ele>122.85714285714286</ele><time>2026-03-30T19:30:45Z</time></trkpt><trkpt lat="-34.10349891923224" lon="-71.96995222280242"><ele>122.57142857142857</ele><time>2026-03-30T19:30:51Z</time></trkpt><trkpt lat="-34.103563224146995" lon="-71.96997539701512"><ele>122.28571428571428</ele><time>2026-03-30T19:30:57Z</time></trkpt><trkpt lat="-34.10361649867188" lon="-71.97002606275612"><ele>121.99999999999999</ele><time>2026-03-30T19:31:02Z</time></trkpt><trkpt lat="-34.103673618460924" lon="-71.97006935588743"><ele>121.99999999999999</ele><time>2026-03-30T19:31:06.999Z</time></trkpt><trkpt lat="-34.10372695622818" lon="-71.97012928491104"><ele>122.0</ele><time>2026-03-30T19:31:12.999Z</time></trkpt><trkpt lat="-34.10375756931964" lon="-71.97020630158322"><ele>121.99999999999999</ele><time>2026-03-30T19:31:18.999Z</time></trkpt><trkpt lat="-34.10380809747794" lon="-71.97025888840682"><ele>121.99999999999999</ele><time>2026-03-30T19:31:23.999Z</time></trkpt><trkpt lat="-34.10384128887378" lon="-71.970326338731"><ele>122.0</ele><time>2026-03-30T19:31:28.999Z</time></trkpt><trkpt lat="-34.103890299204224" lon="-71.97039539475695"><ele>121.99999999999999</ele><time>2026-03-30T19:31:35Z</time></trkpt><trkpt lat="-34.10393664559791" lon="-71.97045736569227"><ele>121.99999999999999</ele><time>2026-03-30T19:31:41Z</time></trkpt><trkpt lat="-34.10399614622088" lon="-71.97049636016929"><ele>121.99999999999999</ele><time>2026-03-30T19:31:48Z</time></trkpt><trkpt lat="-34.104037404001836" lon="-71.97056538679259"><ele>122.0</ele><time>2026-03-30T19:31:55Z</time></trkpt><trkpt lat="-34.10407775665585" lon="-71.97063164445632"><ele>121.99999999999999</ele><time>2026-03-30T19:32:00Z</time></trkpt><trkpt lat="-34.10412365591018" lon="-71.9707063900171"><ele>121.99999999999999</ele><time>2026-03-30T19:32:06Z</time></trkpt><trkpt lat="-34.10418374828089" lon="-71.97076018033569"><ele>122.0</ele><time>2026-03-30T19:32:12Z</time></trkpt><trkpt lat="-34.104243273574006" lon="-71.97080642494406"><ele>121.99999999999999</ele><time>2026-03-30T19:32:24Z</time></trkpt><trkpt lat="-34.104300387047445" lon="-71.97084040916444"><ele>121.99999999999999</ele><time>2026-03-30T19:32:30Z</time></trkpt><trkpt lat="-34.104357790015605" lon="-71.97088551765482"><ele>120.42857142857142</ele><time>2026-03-30T19:32:35Z</time></trkpt><trkpt lat="-34.10442256672413" lon="-71.97088848785496"><ele>118.85714285714286</ele><time>2026-03-30T19:32:40Z</time></trkpt><trkpt lat="-34.104494996825956" lon="-71.97090262845626"><ele>117.28571428571428</ele><time>2026-03-30T19:32:46Z</time></trkpt><trkpt lat="-34.104559879320504" lon="-71.97095808556463"><ele>115.71428571428571</ele><time>2026-03-30T19:32:52Z</time></trkpt><trkpt lat="-34.10461521546933" lon="-71.97099671819123"><ele>114.14285714285714</ele><time>2026-03-30T19:32:58Z</time></trkpt><trkpt lat="-34.10466727026029" lon="-71.97104073252203"><ele>112.57142857142857</ele><time>2026-03-30T19:33:04Z</time></trkpt><trkpt lat="-34.1047293996754" lon="-71.97107532408937"><ele>111.0</ele><time>2026-03-30T19:33:09Z</time></trkpt><trkpt lat="-34.10479099297211" lon="-71.97111571369913"><ele>111.0</ele><time>2026-03-30T19:33:14Z</time></trkpt><trkpt lat="-34.10485124879894" lon="-71.97115262877361"><ele>111.0</ele><time>2026-03-30T19:33:20Z</time></trkpt><trkpt lat="-34.104925360101944" lon="-71.97116202762498"><ele>111.0</ele><time>2026-03-30T19:33:26Z</time></trkpt><trkpt lat="-34.104990882464136" lon="-71.97118995123604"><ele>111.0</ele><time>2026-03-30T19:33:31.999Z</time></trkpt><trkpt lat="-34.1050604616314" lon="-71.97121863799701"><ele>111.0</ele><time>2026-03-30T19:33:36.999Z</time></trkpt><trkpt lat="-34.10512275700321" lon="-71.97124168716627"><ele>111.0</ele><time>2026-03-30T19:33:42Z</time></trkpt><trkpt lat="-34.10519228631268" lon="-71.97125785859627"><ele>111.0</ele><time>2026-03-30T19:33:47Z</time></trkpt><trkpt lat="-34.10525971888381" lon="-71.97128151810777"><ele>111.57142857142857</ele><time>2026-03-30T19:33:52Z</time></trkpt><trkpt lat="-34.105323400723975" lon="-71.9713163745021"><ele>112.14285714285714</ele><time>2026-03-30T19:33:57Z</time></trkpt><trkpt lat="-34.105395595783605" lon="-71.97136004376944"><ele>112.71428571428571</ele><time>2026-03-30T19:34:03Z</time></trkpt><trkpt lat="-34.105443443314485" lon="-71.9714107056036"><ele>113.28571428571428</ele><time>2026-03-30T19:34:08Z</time></trkpt><trkpt lat="-34.10549496411978" lon="-71.97145563875907"><ele>113.85714285714286</ele><time>2026-03-30T19:34:15Z</time></trkpt><trkpt lat="-34.10554531917413" lon="-71.97150933346809"><ele>114.42857142857142</ele><time>2026-03-30T19:34:22Z</time></trkpt><trkpt lat="-34.10560410795549" lon="-71.97153779327954"><ele>114.99999999999999</ele><time>2026-03-30T19:34:28Z</time></trkpt><trkpt lat="-34.105660082526235" lon="-71.97158441039065"><ele>114.99999999999999</ele><time>2026-03-30T19:34:35Z</time></trkpt><trkpt lat="-34.10571550708715" lon="-71.97163985967907"><ele>115.0</ele><time>2026-03-30T19:34:41Z</time></trkpt><trkpt lat="-34.10576023776387" lon="-71.97169834176185"><ele>114.99999999999999</ele><time>2026-03-30T19:34:48Z</time></trkpt><trkpt lat="-34.105830344790306" lon="-71.97172663684839"><ele>114.99999999999999</ele><time>2026-03-30T19:34:56Z</time></trkpt><trkpt lat="-34.105891581044474" lon="-71.97177075915482"><ele>115.0</ele><time>2026-03-30T19:35:03Z</time></trkpt><trkpt lat="-34.105957027416885" lon="-71.97179971217925"><ele>114.99999999999999</ele><time>2026-03-30T19:35:10Z</time></trkpt><trkpt lat="-34.10601502020621" lon="-71.97183630761046"><ele>114.99999999999999</ele><time>2026-03-30T19:35:14.999Z</time></trkpt><trkpt lat="-34.10609122216657" lon="-71.97184911894986"><ele>110.14285714285712</ele><time>2026-03-30T19:35:22.999Z</time></trkpt><trkpt lat="-34.10615182451086" lon="-71.97182532568866"><ele>105.28571428571428</ele><time>2026-03-30T19:35:28.999Z</time></trkpt><trkpt lat="-34.106217806986734" lon="-71.97185197228555"><ele>100.42857142857142</ele><time>2026-03-30T19:35:34.999Z</time></trkpt><trkpt lat="-34.106279105454426" lon="-71.97189307277482"><ele>95.57142857142856</ele><time>2026-03-30T19:35:44.999Z</time></trkpt><trkpt lat="-34.106341828294326" lon="-71.97190287739944"><ele>90.71428571428571</ele><time>2026-03-30T19:35:54Z</time></trkpt><trkpt lat="-34.10641276266027" lon="-71.97192362236191"><ele>85.85714285714286</ele><time>2026-03-30T19:36:08Z</time></trkpt><trkpt lat="-34.10647871864964" lon="-71.97191583124874"><ele>81.0</ele><time>2026-03-30T19:36:28Z</time></trkpt><trkpt lat="-34.106561865474305" lon="-71.97192496236516"><ele>81.0</ele><time>2026-03-30T19:36:42Z</time></trkpt><trkpt lat="-34.106590963236776" lon="-71.9720087646179"><ele>81.0</ele><time>2026-03-30T19:36:53Z</time></trkpt><trkpt lat="-34.106561489652464" lon="-71.97208103446096"><ele>81.0</ele><time>2026-03-30T19:37:05Z</time></trkpt><trkpt lat="-34.10655643528068" lon="-71.97216344290095"><ele>81.0</ele><time>2026-03-30T19:37:12Z</time></trkpt><trkpt lat="-34.10657524227615" lon="-71.97223707244893"><ele>81.0</ele><time>2026-03-30T19:37:17.999Z</time></trkpt><trkpt lat="-34.10659778223989" lon="-71.97232616706629"><ele>81.0</ele><time>2026-03-30T19:37:31.999Z</time></trkpt><trkpt lat="-34.10665407353609" lon="-71.97237864772652"><ele>81.0</ele><time>2026-03-30T19:37:38.999Z</time></trkpt><trkpt lat="-34.10663068517894" lon="-71.9724507968982"><ele>78.57142857142857</ele><time>2026-03-30T19:37:44.999Z</time></trkpt><trkpt lat="-34.106595973946156" lon="-71.97252780458079"><ele>76.14285714285714</ele><time>2026-03-30T19:37:50.999Z</time></trkpt><trkpt lat="-34.10655592816456" lon="-71.97259466059457"><ele>73.71428571428571</ele><time>2026-03-30T19:37:59Z</time></trkpt><trkpt lat="-34.1065006326938" lon="-71.97266234550327"><ele>71.28571428571428</ele><time>2026-03-30T19:38:06Z</time></trkpt><trkpt lat="-34.10644689997194" lon="-71.97270681550013"><ele>68.85714285714285</ele><time>2026-03-30T19:38:12Z</time></trkpt><trkpt lat="-34.10640009774002" lon="-71.9727737564467"><ele>66.42857142857143</ele><time>2026-03-30T19:38:18Z</time></trkpt><trkpt lat="-34.10635646857923" lon="-71.97284833643718"><ele>64.0</ele><time>2026-03-30T19:39:17Z</time></trkpt><trkpt lat="-34.10632950527126" lon="-71.97291946549588"><ele>64.0</ele><time>2026-03-30T19:39:26.999Z</time></trkpt><trkpt lat="-34.10630697608146" lon="-71.9729947575133"><ele>63.99999999999999</ele><time>2026-03-30T19:39:34.999Z</time></trkpt><trkpt lat="-34.10627941141032" lon="-71.97308174208558"><ele>64.0</ele><time>2026-03-30T19:39:42.999Z</time></trkpt><trkpt lat="-34.1063030812307" lon="-71.97315812613081"><ele>64.0</ele><time>2026-03-30T19:39:51.999Z</time></trkpt><trkpt lat="-34.10630329295136" lon="-71.97323497024232"><ele>63.99999999999999</ele><time>2026-03-30T19:40:00Z</time></trkpt><trkpt lat="-34.10629667913545" lon="-71.97331530544612"><ele>64.0</ele><time>2026-03-30T19:40:09Z</time></trkpt><trkpt lat="-34.106325754746535" lon="-71.97338663928574"><ele>64.0</ele><time>2026-03-30T19:40:12Z</time></trkpt><trkpt lat="-34.10634532149246" lon="-71.97347045323554"><ele>62.285714285714285</ele><time>2026-03-30T19:40:16Z</time></trkpt><trkpt lat="-34.10636070980524" lon="-71.97356048919377"><ele>60.57142857142857</ele><time>2026-03-30T19:40:21Z</time></trkpt><trkpt lat="-34.106371380522" lon="-71.97363562853151"><ele>58.857142857142854</ele><time>2026-03-30T19:40:27Z</time></trkpt><trkpt lat="-34.10633746299325" lon="-71.97370890187695"><ele>57.14285714285714</ele><time>2026-03-30T19:40:33Z</time></trkpt><trkpt lat="-34.1062743010589" lon="-71.97375280814069"><ele>55.42857142857143</ele><time>2026-03-30T19:40:41Z</time></trkpt><trkpt lat="-34.10620257093245" lon="-71.97379200917196"><ele>53.71428571428571</ele><time>2026-03-30T19:40:46Z</time></trkpt><trkpt lat="-34.106140409666935" lon="-71.97382957931512"><ele>52.0</ele><time>2026-03-30T19:40:55Z</time></trkpt><trkpt lat="-34.106069746823835" lon="-71.97388008925124"><ele>52.0</ele><time>2026-03-30T19:40:59Z</time></trkpt><trkpt lat="-34.10601131771864" lon="-71.9739214118162"><ele>52.0</ele><time>2026-03-30T19:41:03.999Z</time></trkpt><trkpt lat="-34.10596436061805" lon="-71.97398317351652"><ele>52.0</ele><time>2026-03-30T19:41:24.999Z</time></trkpt><trkpt lat="-34.10589267660361" lon="-71.97403920255348"><ele>52.0</ele><time>2026-03-30T19:41:29.999Z</time></trkpt><trkpt lat="-34.10583413643001" lon="-71.97409197880114"><ele>52.0</ele><time>2026-03-30T19:41:36.999Z</time></trkpt><trkpt lat="-34.105776378653935" lon="-71.97414448358859"><ele>52.0</ele><time>2026-03-30T19:41:43.999Z</time></trkpt><trkpt lat="-34.105739005973106" lon="-71.97421247858786"><ele>52.0</ele><time>2026-03-30T19:41:48.999Z</time></trkpt><trkpt lat="-34.105730571948165" lon="-71.97429529848635"><ele>50.42857142857142</ele><time>2026-03-30T19:41:52.999Z</time></trkpt><trkpt lat="-34.10575550468603" lon="-71.97437547755428"><ele>48.85714285714286</ele><time>2026-03-30T19:41:55.999Z</time></trkpt><trkpt lat="-34.10576981867093" lon="-71.97446069129467"><ele>47.285714285714285</ele><time>2026-03-30T19:42:01.999Z</time></trkpt><trkpt lat="-34.105796241827974" lon="-71.97454379354214"><ele>45.71428571428571</ele><time>2026-03-30T19:42:07Z</time></trkpt><trkpt lat="-34.1058417751928" lon="-71.97461528246212"><ele>44.14285714285714</ele><time>2026-03-30T19:42:15Z</time></trkpt><trkpt lat="-34.105859863904165" lon="-71.97470949562866"><ele>42.57142857142857</ele><time>2026-03-30T19:42:24Z</time></trkpt><trkpt lat="-34.10581464162359" lon="-71.97476887147502"><ele>41.0</ele><time>2026-03-30T19:42:27Z</time></trkpt><trkpt lat="-34.10579253585271" lon="-71.97484138451485"><ele>40.99999999999999</ele><time>2026-03-30T19:42:31Z</time></trkpt><trkpt lat="-34.10579854290408" lon="-71.97492079874733"><ele>41.0</ele><time>2026-03-30T19:42:39Z</time></trkpt><trkpt lat="-34.105814627046506" lon="-71.97499645551922"><ele>41.0</ele><time>2026-03-30T19:42:46Z</time></trkpt><trkpt lat="-34.10582137705735" lon="-71.97508249632146"><ele>41.0</ele><time>2026-03-30T19:44:41Z</time></trkpt><trkpt lat="-34.105839836125774" lon="-71.97515921589803"><ele>41.0</ele><time>2026-03-30T19:44:46Z</time></trkpt><trkpt lat="-34.10584338155899" lon="-71.97523599842975"><ele>40.99999999999999</ele><time>2026-03-30T19:44:52Z</time></trkpt><trkpt lat="-34.1057894602267" lon="-71.97528517762285"><ele>41.0</ele><time>2026-03-30T19:44:58Z</time></trkpt><trkpt lat="-34.10573947923424" lon="-71.9753354873739"><ele>39.99999999999999</ele><time>2026-03-30T19:45:03Z</time></trkpt><trkpt lat="-34.10567529833798" lon="-71.97535626511548"><ele>39.0</ele><time>2026-03-30T19:45:08Z</time></trkpt><trkpt lat="-34.10561236208388" lon="-71.97537441312376"><ele>38.0</ele><time>2026-03-30T19:45:15Z</time></trkpt><trkpt lat="-34.10555525310957" lon="-71.9754123856576"><ele>37.0</ele><time>2026-03-30T19:45:20Z</time></trkpt><trkpt lat="-34.10552657055147" lon="-71.9754822627361"><ele>36.0</ele><time>2026-03-30T19:45:27Z</time></trkpt><trkpt lat="-34.10553175097068" lon="-71.9755714097921"><ele>34.99999999999999</ele><time>2026-03-30T19:45:33Z</time></trkpt><trkpt lat="-34.105529304938166" lon="-71.97565916765065"><ele>34.0</ele><time>2026-03-30T19:45:40Z</time></trkpt><trkpt lat="-34.10554437895318" lon="-71.97573832397897"><ele>34.0</ele><time>2026-03-30T19:45:47Z</time></trkpt><trkpt lat="-34.105574236038684" lon="-71.97580939324304"><ele>34.0</ele><time>2026-03-30T19:45:54Z</time></trkpt><trkpt lat="-34.105538324818994" lon="-71.97590956807349"><ele>34.0</ele><time>2026-03-30T19:46:23Z</time></trkpt><trkpt lat="-34.10554037214828" lon="-71.97599207431968"><ele>34.0</ele><time>2026-03-30T19:46:26Z</time></trkpt><trkpt lat="-34.105524502757774" lon="-71.97607754866897"><ele>34.0</ele><time>2026-03-30T19:46:28Z</time></trkpt><trkpt lat="-34.10545640497411" lon="-71.97612677921485"><ele>34.0</ele><time>2026-03-30T19:46:36Z</time></trkpt><trkpt lat="-34.105393735243275" lon="-71.97618768391214"><ele>32.57142857142857</ele><time>2026-03-30T19:46:41Z</time></trkpt><trkpt lat="-34.10533200562855" lon="-71.97620562656228"><ele>31.142857142857142</ele><time>2026-03-30T19:46:48Z</time></trkpt><trkpt lat="-34.105269078473704" lon="-71.97623466020421"><ele>29.71428571428571</ele><time>2026-03-30T19:51:47Z</time></trkpt><trkpt lat="-34.10520434384122" lon="-71.97624577733689"><ele>28.285714285714285</ele><time>2026-03-30T19:51:54Z</time></trkpt><trkpt lat="-34.105133597887395" lon="-71.97627641115889"><ele>26.857142857142854</ele><time>2026-03-30T19:52:00Z</time></trkpt><trkpt lat="-34.10506146668114" lon="-71.97629535817222"><ele>25.428571428571427</ele><time>2026-03-30T19:52:06Z</time></trkpt><trkpt lat="-34.10499088796757" lon="-71.9762972431469"><ele>24.0</ele><time>2026-03-30T19:52:13Z</time></trkpt><trkpt lat="-34.10491693761072" lon="-71.97629735813757"><ele>23.999999999999996</ele><time>2026-03-30T19:52:19Z</time></trkpt><trkpt lat="-34.10484924816891" lon="-71.9763131379642"><ele>24.0</ele><time>2026-03-30T19:52:25Z</time></trkpt><trkpt lat="-34.10478108674362" lon="-71.97631049083054"><ele>24.0</ele><time>2026-03-30T19:52:30.999Z</time></trkpt><trkpt lat="-34.10470484915751" lon="-71.97632047587719"><ele>24.0</ele><time>2026-03-30T19:52:40Z</time></trkpt><trkpt lat="-34.10463320381189" lon="-71.97632671049924"><ele>24.0</ele><time>2026-03-30T19:52:46Z</time></trkpt><trkpt lat="-34.104573293696866" lon="-71.9763512869132"><ele>23.999999999999996</ele><time>2026-03-30T19:52:52Z</time></trkpt><trkpt lat="-34.104511585386575" lon="-71.97638369116834"><ele>24.0</ele><time>2026-03-30T19:52:58Z</time></trkpt><trkpt lat="-34.10444366762642" lon="-71.97639981120709"><ele>23.999999999999996</ele><time>2026-03-30T19:53:03Z</time></trkpt><trkpt lat="-34.10437531407974" lon="-71.97644969988565"><ele>24.0</ele><time>2026-03-30T19:53:08Z</time></trkpt><trkpt lat="-34.10431712623234" lon="-71.97648313466775"><ele>24.0</ele><time>2026-03-30T19:53:13Z</time></trkpt><trkpt lat="-34.1042586303787" lon="-71.97651919691087"><ele>24.0</ele><time>2026-03-30T19:53:23Z</time></trkpt><trkpt lat="-34.10419388236763" lon="-71.97652984753863"><ele>24.0</ele><time>2026-03-30T19:53:29Z</time></trkpt><trkpt lat="-34.104126607774546" lon="-71.97653504709533"><ele>23.999999999999996</ele><time>2026-03-30T19:53:36Z</time></trkpt><trkpt lat="-34.104054231404405" lon="-71.97654115433126"><ele>24.0</ele><time>2026-03-30T19:53:43Z</time></trkpt><trkpt lat="-34.10399065542003" lon="-71.97654494754981"><ele>25.57142857142857</ele><time>2026-03-30T19:53:50Z</time></trkpt><trkpt lat="-34.103925982124075" lon="-71.97654163478202"><ele>27.142857142857142</ele><time>2026-03-30T19:53:57Z</time></trkpt><trkpt lat="-34.10385899630105" lon="-71.97652759946168"><ele>28.714285714285715</ele><time>2026-03-30T19:54:06Z</time></trkpt><trkpt lat="-34.10379177558033" lon="-71.97653000478745"><ele>30.285714285714285</ele><time>2026-03-30T19:54:13Z</time></trkpt><trkpt lat="-34.1037283890974" lon="-71.97653083671635"><ele>31.857142857142858</ele><time>2026-03-30T19:54:20Z</time></trkpt><trkpt lat="-34.10366108843383" lon="-71.97654137861531"><ele>33.42857142857143</ele><time>2026-03-30T19:54:27Z</time></trkpt><trkpt lat="-34.103591250439905" lon="-71.97652522823383"><ele>35.0</ele><time>2026-03-30T19:54:58Z</time></trkpt><trkpt lat="-34.103517430059654" lon="-71.97653492377916"><ele>35.0</ele><time>2026-03-30T19:55:14Z</time></trkpt><trkpt lat="-34.10343668685327" lon="-71.97658742397626"><ele>35.0</ele><time>2026-03-30T19:55:17Z</time></trkpt><trkpt lat="-34.10337012980848" lon="-71.97662082122645"><ele>35.0</ele><time>2026-03-30T19:55:20Z</time></trkpt><trkpt lat="-34.10330901902146" lon="-71.97665587457976"><ele>35.0</ele><time>2026-03-30T19:55:24Z</time></trkpt><trkpt lat="-34.10324941595178" lon="-71.97668413498742"><ele>35.0</ele><time>2026-03-30T19:55:29Z</time></trkpt><trkpt lat="-34.10317556777489" lon="-71.97669505954862"><ele>35.0</ele><time>2026-03-30T19:55:35Z</time></trkpt><trkpt lat="-34.10310522304371" lon="-71.97668916460874"><ele>35.0</ele><time>2026-03-30T19:55:58Z</time></trkpt><trkpt lat="-34.10304197181931" lon="-71.97669187176443"><ele>33.857142857142854</ele><time>2026-03-30T19:56:00Z</time></trkpt><trkpt lat="-34.10296617638895" lon="-71.97667271279678"><ele>32.714285714285715</ele><time>2026-03-30T19:56:05Z</time></trkpt><trkpt lat="-34.10289658767907" lon="-71.97668146641152"><ele>31.57142857142857</ele><time>2026-03-30T19:56:11Z</time></trkpt><trkpt lat="-34.10282477489777" lon="-71.97666975417023"><ele>30.42857142857143</ele><time>2026-03-30T19:56:17Z</time></trkpt><trkpt lat="-34.10276185546791" lon="-71.97666328455107"><ele>29.285714285714285</ele><time>2026-03-30T19:56:22Z</time></trkpt><trkpt lat="-34.10269509732123" lon="-71.97665779869237"><ele>28.142857142857142</ele><time>2026-03-30T19:56:26.999Z</time></trkpt><trkpt lat="-34.102624420292976" lon="-71.97667606525391"><ele>27.0</ele><time>2026-03-30T19:56:32.999Z</time></trkpt><trkpt lat="-34.102560175792846" lon="-71.97668533286836"><ele>26.428571428571427</ele><time>2026-03-30T19:56:37.999Z</time></trkpt><trkpt lat="-34.10248745571108" lon="-71.97670342295432"><ele>25.857142857142854</ele><time>2026-03-30T19:56:43.999Z</time></trkpt><trkpt lat="-34.10242552419811" lon="-71.97672309532875"><ele>25.285714285714285</ele><time>2026-03-30T19:56:49Z</time></trkpt><trkpt lat="-34.10236319483565" lon="-71.97674170485112"><ele>24.714285714285715</ele><time>2026-03-30T19:56:54Z</time></trkpt><trkpt lat="-34.10229158496506" lon="-71.97675120320434"><ele>24.142857142857142</ele><time>2026-03-30T19:57:00Z</time></trkpt><trkpt lat="-34.10222500364993" lon="-71.9767817278708"><ele>23.571428571428573</ele><time>2026-03-30T19:57:06Z</time></trkpt><trkpt lat="-34.10215405455899" lon="-71.97677965876163"><ele>23.0</ele><time>2026-03-30T19:57:12Z</time></trkpt><trkpt lat="-34.10208623624209" lon="-71.97678768322159"><ele>22.0</ele><time>2026-03-30T19:57:18Z</time></trkpt><trkpt lat="-34.102022223098054" lon="-71.9768295099676"><ele>21.0</ele><time>2026-03-30T19:57:24Z</time></trkpt><trkpt lat="-34.10196175189249" lon="-71.97686493443663"><ele>20.0</ele><time>2026-03-30T19:57:29Z</time></trkpt><trkpt lat="-34.10188900978409" lon="-71.97687094012701"><ele>19.0</ele><time>2026-03-30T19:57:35Z</time></trkpt><trkpt lat="-34.1018259801309" lon="-71.97691440371268"><ele>18.0</ele><time>2026-03-30T19:57:39Z</time></trkpt><trkpt lat="-34.101764718586345" lon="-71.97695871102711"><ele>17.0</ele><time>2026-03-30T19:57:45Z</time></trkpt><trkpt lat="-34.10169690993484" lon="-71.97698195920336"><ele>16.0</ele><time>2026-03-30T19:57:50Z</time></trkpt><trkpt lat="-34.101629663090556" lon="-71.97699262110893"><ele>15.714285714285714</ele><time>2026-03-30T19:57:55Z</time></trkpt><trkpt lat="-34.10156959849515" lon="-71.97702522153725"><ele>15.428571428571427</ele><time>2026-03-30T19:58:00Z</time></trkpt><trkpt lat="-34.10150144787226" lon="-71.97704545301322"><ele>15.142857142857142</ele><time>2026-03-30T19:58:05Z</time></trkpt><trkpt lat="-34.1014378971649" lon="-71.97704802179497"><ele>14.857142857142858</ele><time>2026-03-30T19:58:10Z</time></trkpt><trkpt lat="-34.101362132060196" lon="-71.97706824505839"><ele>14.571428571428571</ele><time>2026-03-30T19:58:16Z</time></trkpt><trkpt lat="-34.10130025347964" lon="-71.97709374552515"><ele>14.285714285714285</ele><time>2026-03-30T19:58:21Z</time></trkpt><trkpt lat="-34.10122621491735" lon="-71.97710662597962"><ele>14.0</ele><time>2026-03-30T19:58:27Z</time></trkpt><trkpt lat="-34.10115717132061" lon="-71.97711188900867"><ele>14.0</ele><time>2026-03-30T19:58:32Z</time></trkpt><trkpt lat="-34.101093068526936" lon="-71.97711402028612"><ele>14.0</ele><time>2026-03-30T19:58:39Z</time></trkpt><trkpt lat="-34.10102782037427" lon="-71.97712299723055"><ele>14.0</ele><time>2026-03-30T19:58:49.999Z</time></trkpt><trkpt lat="-34.100953744321075" lon="-71.97713372036891"><ele>14.0</ele><time>2026-03-30T19:58:55Z</time></trkpt><trkpt lat="-34.100882245211324" lon="-71.97712941694726"><ele>14.0</ele><time>2026-03-30T19:59:04Z</time></trkpt><trkpt lat="-34.100814131411404" lon="-71.97714064546692"><ele>14.0</ele><time>2026-03-30T19:59:10Z</time></trkpt><trkpt lat="-34.10074977629752" lon="-71.97716768764155"><ele>14.0</ele><time>2026-03-30T19:59:15Z</time></trkpt><trkpt lat="-34.100685992010625" lon="-71.97720281118795"><ele>13.857142857142858</ele><time>2026-03-30T19:59:22Z</time></trkpt><trkpt lat="-34.10061672777029" lon="-71.97723399597608"><ele>13.714285714285715</ele><time>2026-03-30T19:59:28Z</time></trkpt><trkpt lat="-34.10053535640462" lon="-71.97723636764833"><ele>13.571428571428571</ele><time>2026-03-30T19:59:34Z</time></trkpt><trkpt lat="-34.10046723064867" lon="-71.9772589574008"><ele>13.428571428571429</ele><time>2026-03-30T19:59:40Z</time></trkpt><trkpt lat="-34.10039251577953" lon="-71.97727329029613"><ele>13.285714285714286</ele><time>2026-03-30T19:59:47Z</time></trkpt><trkpt lat="-34.10032937750186" lon="-71.97727170981909"><ele>13.142857142857142</ele><time>2026-03-30T19:59:52Z</time></trkpt><trkpt lat="-34.10026060962912" lon="-71.97730282961774"><ele>13.0</ele><time>2026-03-30T19:59:58Z</time></trkpt><trkpt lat="-34.10019224912634" lon="-71.97728740861128"><ele>13.0</ele><time>2026-03-30T20:00:03Z</time></trkpt><trkpt lat="-34.10012580802894" lon="-71.977268828349"><ele>13.0</ele><time>2026-03-30T20:00:08Z</time></trkpt><trkpt lat="-34.10006182644772" lon="-71.9772761284025"><ele>13.0</ele><time>2026-03-30T20:00:13Z</time></trkpt><trkpt lat="-34.09999073111582" lon="-71.97728122263268"><ele>13.0</ele><time>2026-03-30T20:00:18Z</time></trkpt><trkpt lat="-34.09991854517727" lon="-71.97729495683916"><ele>13.0</ele><time>2026-03-30T20:00:23Z</time></trkpt><trkpt lat="-34.09985217341309" lon="-71.97731720322959"><ele>13.0</ele><time>2026-03-30T20:00:28Z</time></trkpt><trkpt lat="-34.09978704583626" lon="-71.9773216926533"><ele>13.0</ele><time>2026-03-30T20:00:33Z</time></trkpt><trkpt lat="-34.09971282109383" lon="-71.9773232881222"><ele>13.0</ele><time>2026-03-30T20:00:39Z</time></trkpt><trkpt lat="-34.099641823728824" lon="-71.97731127080725"><ele>13.0</ele><time>2026-03-30T20:00:45Z</time></trkpt><trkpt lat="-34.099572278106784" lon="-71.97731839016532"><ele>13.0</ele><time>2026-03-30T20:00:50Z</time></trkpt><trkpt lat="-34.099508388603525" lon="-71.97735597717666"><ele>13.0</ele><time>2026-03-30T20:00:56Z</time></trkpt><trkpt lat="-34.099434939936785" lon="-71.97734666065534"><ele>13.0</ele><time>2026-03-30T20:01:02Z</time></trkpt><trkpt lat="-34.09936381911918" lon="-71.97735889985842"><ele>13.0</ele><time>2026-03-30T20:01:08Z</time></trkpt><trkpt lat="-34.09930120956581" lon="-71.97737070061652"><ele>13.0</ele><time>2026-03-30T20:01:13Z</time></trkpt><trkpt lat="-34.09922795064913" lon="-71.97737184193053"><ele>13.0</ele><time>2026-03-30T20:01:19Z</time></trkpt><trkpt lat="-34.099162640211574" lon="-71.97737269326072"><ele>13.0</ele><time>2026-03-30T20:01:24Z</time></trkpt><trkpt lat="-34.099092283018436" lon="-71.97736593066183"><ele>13.0</ele><time>2026-03-30T20:01:30Z</time></trkpt><trkpt lat="-34.099027720508566" lon="-71.97737076117635"><ele>13.0</ele><time>2026-03-30T20:01:35Z</time></trkpt><trkpt lat="-34.0989627927327" lon="-71.97739701521934"><ele>13.0</ele><time>2026-03-30T20:01:41Z</time></trkpt><trkpt lat="-34.098895535686744" lon="-71.97741006540718"><ele>13.0</ele><time>2026-03-30T20:01:47Z</time></trkpt><trkpt lat="-34.0988309609349" lon="-71.97742308278305"><ele>13.0</ele><time>2026-03-30T20:01:53Z</time></trkpt><trkpt lat="-34.09875844028372" lon="-71.97742531217921"><ele>13.0</ele><time>2026-03-30T20:01:59Z</time></trkpt><trkpt lat="-34.098688084750044" lon="-71.97742580968503"><ele>13.0</ele><time>2026-03-30T20:02:05Z</time></trkpt><trkpt lat="-34.09861610365228" lon="-71.97741063659358"><ele>13.0</ele><time>2026-03-30T20:02:13Z</time></trkpt><trkpt lat="-34.098548739906235" lon="-71.97741058367859"><ele>13.0</ele><time>2026-03-30T20:02:20Z</time></trkpt><trkpt lat="-34.09848523634901" lon="-71.97740641290275"><ele>13.0</ele><time>2026-03-30T20:02:27Z</time></trkpt><trkpt lat="-34.09841519008077" lon="-71.9774184217399"><ele>13.0</ele><time>2026-03-30T20:02:36Z</time></trkpt><trkpt lat="-34.09835173528437" lon="-71.97741278479974"><ele>13.0</ele><time>2026-03-30T20:02:41Z</time></trkpt><trkpt lat="-34.09828461867891" lon="-71.97741203812855"><ele>13.0</ele><time>2026-03-30T20:02:47Z</time></trkpt><trkpt lat="-34.09821812081994" lon="-71.97740541746008"><ele>13.0</ele><time>2026-03-30T20:02:52Z</time></trkpt><trkpt lat="-34.09815206200335" lon="-71.97740541728048"><ele>13.0</ele><time>2026-03-30T20:02:58Z</time></trkpt><trkpt lat="-34.09808862990334" lon="-71.97739342022385"><ele>13.0</ele><time>2026-03-30T20:03:03Z</time></trkpt><trkpt lat="-34.098019252621405" lon="-71.97738519439183"><ele>13.0</ele><time>2026-03-30T20:03:09Z</time></trkpt><trkpt lat="-34.097947542726295" lon="-71.97737209352276"><ele>13.0</ele><time>2026-03-30T20:03:15Z</time></trkpt><trkpt lat="-34.09787554079935" lon="-71.97737783110394"><ele>13.0</ele><time>2026-03-30T20:03:21Z</time></trkpt><trkpt lat="-34.09781286398178" lon="-71.97735646841988"><ele>13.0</ele><time>2026-03-30T20:03:26Z</time></trkpt><trkpt lat="-34.09774338940877" lon="-71.97734128311434"><ele>13.0</ele><time>2026-03-30T20:03:32Z</time></trkpt><trkpt lat="-34.09767689740589" lon="-71.97733727199007"><ele>13.0</ele><time>2026-03-30T20:03:39Z</time></trkpt><trkpt lat="-34.09760605180765" lon="-71.97732735438228"><ele>13.0</ele><time>2026-03-30T20:03:45Z</time></trkpt><trkpt lat="-34.0975379298626" lon="-71.97730892167175"><ele>13.0</ele><time>2026-03-30T20:03:51Z</time></trkpt><trkpt lat="-34.09747378891087" lon="-71.97729499173305"><ele>13.0</ele><time>2026-03-30T20:03:56Z</time></trkpt><trkpt lat="-34.097405883995926" lon="-71.97727488723426"><ele>13.0</ele><time>2026-03-30T20:04:03Z</time></trkpt><trkpt lat="-34.09733705909678" lon="-71.97726076063721"><ele>12.714285714285714</ele><time>2026-03-30T20:04:09Z</time></trkpt><trkpt lat="-34.09726244272687" lon="-71.97725324124237"><ele>12.428571428571429</ele><time>2026-03-30T20:04:16Z</time></trkpt><trkpt lat="-34.09719361840175" lon="-71.97724328295105"><ele>12.142857142857142</ele><time>2026-03-30T20:04:22Z</time></trkpt><trkpt lat="-34.09713273626688" lon="-71.9772176032695"><ele>11.857142857142858</ele><time>2026-03-30T20:04:27Z</time></trkpt><trkpt lat="-34.09706390070014" lon="-71.97720208074615"><ele>11.571428571428571</ele><time>2026-03-30T20:04:33Z</time></trkpt><trkpt lat="-34.0970003256165" lon="-71.97717936579357"><ele>11.285714285714286</ele><time>2026-03-30T20:04:39Z</time></trkpt><trkpt lat="-34.09693254031558" lon="-71.9771717242174"><ele>11.0</ele><time>2026-03-30T20:04:45Z</time></trkpt><trkpt lat="-34.09685836857116" lon="-71.97715610422465"><ele>11.0</ele><time>2026-03-30T20:04:51Z</time></trkpt><trkpt lat="-34.09680425504196" lon="-71.97720727357834"><ele>11.0</ele><time>2026-03-30T20:05:05.999Z</time></trkpt><trkpt lat="-34.0967406714666" lon="-71.97720287817435"><ele>11.0</ele><time>2026-03-30T20:06:14Z</time></trkpt><trkpt lat="-34.09667168641054" lon="-71.97719076010249"><ele>11.0</ele><time>2026-03-30T20:06:19Z</time></trkpt><trkpt lat="-34.09660379189366" lon="-71.9772008915228"><ele>11.0</ele><time>2026-03-30T20:06:24Z</time></trkpt><trkpt lat="-34.09651987879887" lon="-71.97717676832777"><ele>11.0</ele><time>2026-03-30T20:06:29Z</time></trkpt><trkpt lat="-34.096451989399455" lon="-71.9771821683329"><ele>11.0</ele><time>2026-03-30T20:06:35Z</time></trkpt><trkpt lat="-34.09637834392731" lon="-71.97716141862388"><ele>11.428571428571429</ele><time>2026-03-30T20:06:41Z</time></trkpt><trkpt lat="-34.096315995679554" lon="-71.97714882539294"><ele>11.857142857142858</ele><time>2026-03-30T20:06:47Z</time></trkpt><trkpt lat="-34.09625457391262" lon="-71.97712092581327"><ele>12.285714285714285</ele><time>2026-03-30T20:06:52Z</time></trkpt><trkpt lat="-34.096193875325795" lon="-71.97709987151381"><ele>12.714285714285715</ele><time>2026-03-30T20:06:57Z</time></trkpt><trkpt lat="-34.09612658310711" lon="-71.97707458418998"><ele>13.142857142857142</ele><time>2026-03-30T20:07:01.999Z</time></trkpt><trkpt lat="-34.09606607039578" lon="-71.97705325077638"><ele>13.571428571428571</ele><time>2026-03-30T20:07:06.999Z</time></trkpt><trkpt lat="-34.096004424093906" lon="-71.97703055956842"><ele>14.0</ele><time>2026-03-30T20:07:11.999Z</time></trkpt><trkpt lat="-34.095940267424886" lon="-71.97700673521332"><ele>14.0</ele><time>2026-03-30T20:07:17Z</time></trkpt><trkpt lat="-34.09587350497423" lon="-71.97698854632971"><ele>14.0</ele><time>2026-03-30T20:07:23Z</time></trkpt><trkpt lat="-34.09581295369683" lon="-71.97695549266486"><ele>14.0</ele><time>2026-03-30T20:07:28Z</time></trkpt><trkpt lat="-34.09574564234111" lon="-71.97694921430053"><ele>14.0</ele><time>2026-03-30T20:07:42Z</time></trkpt><trkpt lat="-34.09568553648243" lon="-71.97691341699218"><ele>14.0</ele><time>2026-03-30T20:07:46Z</time></trkpt><trkpt lat="-34.095622633337484" lon="-71.9769091461294"><ele>14.0</ele><time>2026-03-30T20:07:52Z</time></trkpt><trkpt lat="-34.095568700047544" lon="-71.97695908602701"><ele>14.0</ele><time>2026-03-30T20:07:57Z</time></trkpt><trkpt lat="-34.09551192113348" lon="-71.9769925312778"><ele>13.571428571428571</ele><time>2026-03-30T20:08:10Z</time></trkpt><trkpt lat="-34.09547267341157" lon="-71.97705422400865"><ele>13.142857142857142</ele><time>2026-03-30T20:08:13Z</time></trkpt><trkpt lat="-34.09543966078751" lon="-71.977125022569"><ele>12.714285714285715</ele><time>2026-03-30T20:08:22Z</time></trkpt><trkpt lat="-34.09538213906868" lon="-71.9770816935342"><ele>12.285714285714285</ele><time>2026-03-30T20:08:33Z</time></trkpt><trkpt lat="-34.09534534694911" lon="-71.97701804117445"><ele>11.857142857142858</ele><time>2026-03-30T20:08:39Z</time></trkpt><trkpt lat="-34.09527895973246" lon="-71.97698843788069"><ele>11.428571428571429</ele><time>2026-03-30T20:08:47.999Z</time></trkpt><trkpt lat="-34.09520916832104" lon="-71.97697529122694"><ele>11.0</ele><time>2026-03-30T20:08:49.999Z</time></trkpt><trkpt lat="-34.09513405458909" lon="-71.9769885197781"><ele>11.0</ele><time>2026-03-30T20:08:52.999Z</time></trkpt><trkpt lat="-34.095065380737395" lon="-71.97697815613353"><ele>11.0</ele><time>2026-03-30T20:08:55.999Z</time></trkpt><trkpt lat="-34.09499786430298" lon="-71.97696726470055"><ele>11.0</ele><time>2026-03-30T20:08:58.999Z</time></trkpt><trkpt lat="-34.094931327547336" lon="-71.97696882493825"><ele>11.0</ele><time>2026-03-30T20:09:03.999Z</time></trkpt><trkpt lat="-34.094861627020535" lon="-71.9769674429181"><ele>11.0</ele><time>2026-03-30T20:09:13.999Z</time></trkpt><trkpt lat="-34.09482646797621" lon="-71.97704513073609"><ele>11.0</ele><time>2026-03-30T20:09:18.999Z</time></trkpt><trkpt lat="-34.09481783851083" lon="-71.97712856575939"><ele>11.0</ele><time>2026-03-30T20:09:25Z</time></trkpt><trkpt lat="-34.09482098804846" lon="-71.97721033923798"><ele>10.857142857142858</ele><time>2026-03-30T20:09:31Z</time></trkpt><trkpt lat="-34.09478641438567" lon="-71.97728728623063"><ele>10.714285714285714</ele><time>2026-03-30T20:09:37Z</time></trkpt><trkpt lat="-34.094731433776154" lon="-71.97733176836421"><ele>10.571428571428571</ele><time>2026-03-30T20:09:42Z</time></trkpt><trkpt lat="-34.094684215600125" lon="-71.97738435258496"><ele>10.428571428571429</ele><time>2026-03-30T20:09:50Z</time></trkpt><trkpt lat="-34.09466585467144" lon="-71.97748970215687"><ele>10.285714285714286</ele><time>2026-03-30T20:09:54Z</time></trkpt><trkpt lat="-34.09465779060445" lon="-71.97757080811556"><ele>10.142857142857142</ele><time>2026-03-30T20:09:57Z</time></trkpt><trkpt lat="-34.09462446714918" lon="-71.9776563937799"><ele>10.0</ele><time>2026-03-30T20:10:03Z</time></trkpt><trkpt lat="-34.09460498665784" lon="-71.97774314334576"><ele>9.857142857142858</ele><time>2026-03-30T20:10:06Z</time></trkpt><trkpt lat="-34.0945468220927" lon="-71.9777769654938"><ele>9.714285714285715</ele><time>2026-03-30T20:10:12Z</time></trkpt><trkpt lat="-34.09447798450644" lon="-71.97775859482309"><ele>9.571428571428573</ele><time>2026-03-30T20:10:22Z</time></trkpt><trkpt lat="-34.09441810040171" lon="-71.97772065885086"><ele>9.428571428571429</ele><time>2026-03-30T20:10:33Z</time></trkpt><trkpt lat="-34.094354721971655" lon="-71.977719457941"><ele>9.285714285714286</ele><time>2026-03-30T20:10:45.999Z</time></trkpt><trkpt lat="-34.09429285322894" lon="-71.97773493021774"><ele>9.142857142857144</ele><time>2026-03-30T20:11:54Z</time></trkpt><trkpt lat="-34.09422937941091" lon="-71.97775667303449"><ele>9.0</ele><time>2026-03-30T20:11:59Z</time></trkpt><trkpt lat="-34.09429455487428" lon="-71.97776123719593"><ele>9.000000000000002</ele><time>2026-03-30T20:14:40.999Z</time></trkpt><trkpt lat="-34.094369852621185" lon="-71.97776762204532"><ele>9.0</ele><time>2026-03-30T20:14:53.999Z</time></trkpt><trkpt lat="-34.09442581509375" lon="-71.97772148535843"><ele>9.0</ele><time>2026-03-30T20:15:03.999Z</time></trkpt><trkpt lat="-34.09449790394286" lon="-71.9777661316014"><ele>9.0</ele><time>2026-03-30T20:15:12.999Z</time></trkpt><trkpt lat="-34.09457072277565" lon="-71.9777571754953"><ele>9.0</ele><time>2026-03-30T20:15:31.999Z</time></trkpt><trkpt lat="-34.094636261605324" lon="-71.97773930697224"><ele>9.000000000000002</ele><time>2026-03-30T20:15:41Z</time></trkpt><trkpt lat="-34.09469364063283" lon="-71.97770249039414"><ele>9.0</ele><time>2026-03-30T20:15:47Z</time></trkpt><trkpt lat="-34.09472435352369" lon="-71.97762693886594"><ele>9.000000000000002</ele><time>2026-03-30T20:15:54Z</time></trkpt><trkpt lat="-34.094788725796455" lon="-71.9776175116952"><ele>9.0</ele><time>2026-03-30T20:16:01Z</time></trkpt><trkpt lat="-34.09485509177291" lon="-71.97758950429434"><ele>9.0</ele><time>2026-03-30T20:16:05Z</time></trkpt><trkpt lat="-34.094901180297455" lon="-71.97753670869643"><ele>9.0</ele><time>2026-03-30T20:16:10Z</time></trkpt><trkpt lat="-34.09495560088768" lon="-71.97748708320616"><ele>9.0</ele><time>2026-03-30T20:16:15Z</time></trkpt><trkpt lat="-34.09500767979366" lon="-71.97743696943003"><ele>9.000000000000002</ele><time>2026-03-30T20:16:20Z</time></trkpt><trkpt lat="-34.09504724693577" lon="-71.97736975505022"><ele>9.0</ele><time>2026-03-30T20:16:26Z</time></trkpt><trkpt lat="-34.09509660283529" lon="-71.97730712272185"><ele>9.285714285714286</ele><time>2026-03-30T20:16:31Z</time></trkpt><trkpt lat="-34.09515890945197" lon="-71.9772708625124"><ele>9.571428571428571</ele><time>2026-03-30T20:16:36Z</time></trkpt><trkpt lat="-34.09522078930764" lon="-71.97724559669027"><ele>9.857142857142858</ele><time>2026-03-30T20:16:41Z</time></trkpt><trkpt lat="-34.09527469583513" lon="-71.97719570002089"><ele>10.142857142857142</ele><time>2026-03-30T20:16:45.999Z</time></trkpt><trkpt lat="-34.09532191318062" lon="-71.97713709096392"><ele>10.428571428571429</ele><time>2026-03-30T20:16:50.999Z</time></trkpt><trkpt lat="-34.0953762152668" lon="-71.97705975408878"><ele>10.714285714285715</ele><time>2026-03-30T20:17:07.999Z</time></trkpt><trkpt lat="-34.09539189643356" lon="-71.97698208852037"><ele>11.0</ele><time>2026-03-30T20:17:14.999Z</time></trkpt><trkpt lat="-34.09542421131003" lon="-71.97690150928607"><ele>11.0</ele><time>2026-03-30T20:17:19.999Z</time></trkpt><trkpt lat="-34.095477368686225" lon="-71.97686012977644"><ele>11.0</ele><time>2026-03-30T20:17:27.999Z</time></trkpt><trkpt lat="-34.09553276554184" lon="-71.97680707374208"><ele>11.0</ele><time>2026-03-30T20:17:32.999Z</time></trkpt><trkpt lat="-34.09558239029188" lon="-71.97675177607225"><ele>11.0</ele><time>2026-03-30T20:17:42.999Z</time></trkpt><trkpt lat="-34.09563210013172" lon="-71.97669980230873"><ele>11.0</ele><time>2026-03-30T20:17:50Z</time></trkpt><trkpt lat="-34.095692657449945" lon="-71.97667420415435"><ele>11.0</ele><time>2026-03-30T20:17:53Z</time></trkpt><trkpt lat="-34.09575656429175" lon="-71.97664744846936"><ele>11.0</ele><time>2026-03-30T20:17:58Z</time></trkpt><trkpt lat="-34.09582465576911" lon="-71.97661409400627"><ele>12.0</ele><time>2026-03-30T20:18:03Z</time></trkpt><trkpt lat="-34.09588350824112" lon="-71.9765719590778"><ele>13.0</ele><time>2026-03-30T20:18:09Z</time></trkpt><trkpt lat="-34.09594228645706" lon="-71.97652350822717"><ele>14.0</ele><time>2026-03-30T20:18:15Z</time></trkpt><trkpt lat="-34.095991572487534" lon="-71.97646707936018"><ele>15.0</ele><time>2026-03-30T20:18:22Z</time></trkpt><trkpt lat="-34.096056905334024" lon="-71.97643903074844"><ele>16.0</ele><time>2026-03-30T20:18:29Z</time></trkpt><trkpt lat="-34.096119881165855" lon="-71.97642717187486"><ele>17.000000000000004</ele><time>2026-03-30T20:18:35Z</time></trkpt><trkpt lat="-34.0961747831009" lon="-71.97637649419589"><ele>18.0</ele><time>2026-03-30T20:18:43Z</time></trkpt><trkpt lat="-34.09622426229937" lon="-71.97632471663859"><ele>18.000000000000004</ele><time>2026-03-30T20:18:48Z</time></trkpt><trkpt lat="-34.096289296619524" lon="-71.97630142169463"><ele>18.0</ele><time>2026-03-30T20:18:58Z</time></trkpt><trkpt lat="-34.09634683805516" lon="-71.97626882015336"><ele>18.0</ele><time>2026-03-30T20:19:08Z</time></trkpt><trkpt lat="-34.096424201434765" lon="-71.97626650696117"><ele>18.0</ele><time>2026-03-30T20:19:34.999Z</time></trkpt><trkpt lat="-34.096488420610164" lon="-71.97625307589986"><ele>18.0</ele><time>2026-03-30T20:19:45.999Z</time></trkpt><trkpt lat="-34.096553821833595" lon="-71.97623024936766"><ele>18.000000000000004</ele><time>2026-03-30T20:19:54Z</time></trkpt><trkpt lat="-34.09662769691347" lon="-71.97618717671133"><ele>18.0</ele><time>2026-03-30T20:20:11Z</time></trkpt><trkpt lat="-34.096687672710004" lon="-71.97615616359806"><ele>18.571428571428573</ele><time>2026-03-30T20:20:21Z</time></trkpt><trkpt lat="-34.09675723465429" lon="-71.97611325923721"><ele>19.142857142857142</ele><time>2026-03-30T20:20:35Z</time></trkpt><trkpt lat="-34.09678502970601" lon="-71.97604396046931"><ele>19.714285714285715</ele><time>2026-03-30T20:20:42Z</time></trkpt><trkpt lat="-34.09672466291398" lon="-71.97599641150201"><ele>20.285714285714285</ele><time>2026-03-30T20:20:52Z</time></trkpt><trkpt lat="-34.09670112070014" lon="-71.97591486973795"><ele>20.857142857142858</ele><time>2026-03-30T20:21:14Z</time></trkpt><trkpt lat="-34.096685240254246" lon="-71.97583669796789"><ele>21.42857142857143</ele><time>2026-03-30T20:21:22.999Z</time></trkpt><trkpt lat="-34.09665717037632" lon="-71.97576178085039"><ele>22.0</ele><time>2026-03-30T20:21:40.999Z</time></trkpt><trkpt lat="-34.09663579281651" lon="-71.97568361942442"><ele>25.0</ele><time>2026-03-30T20:21:53.999Z</time></trkpt><trkpt lat="-34.0966024716197" lon="-71.97561650190556"><ele>28.0</ele><time>2026-03-30T20:22:05Z</time></trkpt><trkpt lat="-34.09655394987777" lon="-71.97556373877812"><ele>31.0</ele><time>2026-03-30T20:22:15Z</time></trkpt><trkpt lat="-34.0965111167045" lon="-71.97550257386847"><ele>34.0</ele><time>2026-03-30T20:22:34Z</time></trkpt><trkpt lat="-34.09645885446284" lon="-71.97544760963332"><ele>37.0</ele><time>2026-03-30T20:22:44Z</time></trkpt><trkpt lat="-34.096427928489646" lon="-71.97537652865793"><ele>40.00000000000001</ele><time>2026-03-30T20:23:00Z</time></trkpt><trkpt lat="-34.09635986115641" lon="-71.9754079862175"><ele>43.0</ele><time>2026-03-30T20:23:19Z</time></trkpt><trkpt lat="-34.09629656455848" lon="-71.97540688081436"><ele>43.00000000000001</ele><time>2026-03-30T20:23:26Z</time></trkpt><trkpt lat="-34.09628256047379" lon="-71.9753241935185"><ele>43.0</ele><time>2026-03-30T20:23:30Z</time></trkpt><trkpt lat="-34.096230487724064" lon="-71.97526759351938"><ele>43.0</ele><time>2026-03-30T20:23:35Z</time></trkpt><trkpt lat="-34.09616785566267" lon="-71.97524885600075"><ele>43.0</ele><time>2026-03-30T20:23:41Z</time></trkpt><trkpt lat="-34.096091322174445" lon="-71.97525421943213"><ele>43.0</ele><time>2026-03-30T20:23:56.999Z</time></trkpt><trkpt lat="-34.09604183642399" lon="-71.97519671136844"><ele>43.00000000000001</ele><time>2026-03-30T20:24:00.999Z</time></trkpt><trkpt lat="-34.095995913480536" lon="-71.97513668543382"><ele>43.0</ele><time>2026-03-30T20:24:07Z</time></trkpt><trkpt lat="-34.095938515567354" lon="-71.97509227833935"><ele>46.0</ele><time>2026-03-30T20:24:12Z</time></trkpt><trkpt lat="-34.09596089545593" lon="-71.97501371744077"><ele>49.0</ele><time>2026-03-30T20:24:27Z</time></trkpt><trkpt lat="-34.09598136715172" lon="-71.97493630449009"><ele>52.0</ele><time>2026-03-30T20:24:35Z</time></trkpt><trkpt lat="-34.09601407739273" lon="-71.9748603247184"><ele>55.0</ele><time>2026-03-30T20:24:46Z</time></trkpt><trkpt lat="-34.09605093511033" lon="-71.97478939753297"><ele>57.99999999999999</ele><time>2026-03-30T20:24:54Z</time></trkpt><trkpt lat="-34.09611528176432" lon="-71.97475029573772"><ele>61.0</ele><time>2026-03-30T20:25:01Z</time></trkpt><trkpt lat="-34.096174235249435" lon="-71.97471580484078"><ele>64.0</ele><time>2026-03-30T20:25:10Z</time></trkpt><trkpt lat="-34.09623342930771" lon="-71.97467982305484"><ele>64.0</ele><time>2026-03-30T20:25:16Z</time></trkpt><trkpt lat="-34.09629695436558" lon="-71.97464443998173"><ele>63.99999999999999</ele><time>2026-03-30T20:25:24Z</time></trkpt><trkpt lat="-34.09634586326698" lon="-71.97457538341325"><ele>64.0</ele><time>2026-03-30T20:25:31Z</time></trkpt><trkpt lat="-34.09636447301965" lon="-71.97449862070984"><ele>64.0</ele><time>2026-03-30T20:25:38Z</time></trkpt><trkpt lat="-34.096357996941414" lon="-71.97441925871294"><ele>63.99999999999999</ele><time>2026-03-30T20:25:44.999Z</time></trkpt><trkpt lat="-34.09637395830077" lon="-71.97433534266061"><ele>64.0</ele><time>2026-03-30T20:25:50.999Z</time></trkpt><trkpt lat="-34.096408718374505" lon="-71.97426640495786"><ele>64.0</ele><time>2026-03-30T20:26:03.999Z</time></trkpt><trkpt lat="-34.09646336254093" lon="-71.97421555776467"><ele>64.28571428571428</ele><time>2026-03-30T20:26:08.999Z</time></trkpt><trkpt lat="-34.096516623301646" lon="-71.97416884302669"><ele>64.57142857142857</ele><time>2026-03-30T20:26:15Z</time></trkpt><trkpt lat="-34.0965638398981" lon="-71.97410773816064"><ele>64.85714285714286</ele><time>2026-03-30T20:26:21Z</time></trkpt><trkpt lat="-34.09661451007803" lon="-71.97405804764816"><ele>65.14285714285714</ele><time>2026-03-30T20:26:27Z</time></trkpt><trkpt lat="-34.09664269372552" lon="-71.97398478113786"><ele>65.42857142857143</ele><time>2026-03-30T20:26:34Z</time></trkpt><trkpt lat="-34.09663817898572" lon="-71.9739069682664"><ele>65.71428571428571</ele><time>2026-03-30T20:26:40Z</time></trkpt><trkpt lat="-34.096684142320655" lon="-71.97384473393642"><ele>66.0</ele><time>2026-03-30T20:27:02Z</time></trkpt><trkpt lat="-34.09671219343852" lon="-71.97377253167845"><ele>66.0</ele><time>2026-03-30T20:27:12Z</time></trkpt><trkpt lat="-34.096757113165204" lon="-71.97370220195803"><ele>66.0</ele><time>2026-03-30T20:27:19Z</time></trkpt><trkpt lat="-34.09672168400682" lon="-71.97363387939697"><ele>66.0</ele><time>2026-03-30T20:27:25Z</time></trkpt><trkpt lat="-34.096664053240424" lon="-71.97359719829483"><ele>66.0</ele><time>2026-03-30T20:27:32Z</time></trkpt><trkpt lat="-34.09660619083001" lon="-71.97354469229175"><ele>66.0</ele><time>2026-03-30T20:27:39Z</time></trkpt><trkpt lat="-34.09657180473083" lon="-71.97346459464582"><ele>66.0</ele><time>2026-03-30T20:28:07.999Z</time></trkpt><trkpt lat="-34.09653485895658" lon="-71.97340143148982"><ele>66.0</ele><time>2026-03-30T20:28:33Z</time></trkpt><trkpt lat="-34.09650485629015" lon="-71.97332540500037"><ele>68.28571428571428</ele><time>2026-03-30T20:28:43Z</time></trkpt><trkpt lat="-34.09645653619012" lon="-71.97327087978698"><ele>70.57142857142857</ele><time>2026-03-30T20:28:49Z</time></trkpt><trkpt lat="-34.09640418882465" lon="-71.97321348175664"><ele>72.85714285714286</ele><time>2026-03-30T20:28:56Z</time></trkpt><trkpt lat="-34.09637406038348" lon="-71.97312958518648"><ele>75.14285714285714</ele><time>2026-03-30T20:29:03Z</time></trkpt><trkpt lat="-34.09630330834267" lon="-71.97310102491102"><ele>77.42857142857143</ele><time>2026-03-30T20:29:13Z</time></trkpt><trkpt lat="-34.096245829002804" lon="-71.97305957654068"><ele>79.71428571428571</ele><time>2026-03-30T20:30:06.999Z</time></trkpt><trkpt lat="-34.09619771527924" lon="-71.9730061633114"><ele>82.0</ele><time>2026-03-30T20:30:16.999Z</time></trkpt><trkpt lat="-34.096161529654566" lon="-71.97294081019"><ele>81.99999999999999</ele><time>2026-03-30T20:30:23Z</time></trkpt><trkpt lat="-34.096152438455356" lon="-71.97286524699204"><ele>82.0</ele><time>2026-03-30T20:30:37Z</time></trkpt><trkpt lat="-34.096136230946016" lon="-71.97279173901467"><ele>82.0</ele><time>2026-03-30T20:30:48Z</time></trkpt><trkpt lat="-34.096153410717015" lon="-71.97270981091253"><ele>82.0</ele><time>2026-03-30T20:30:56Z</time></trkpt><trkpt lat="-34.096167036093405" lon="-71.97263308651607"><ele>82.0</ele><time>2026-03-30T20:31:03Z</time></trkpt><trkpt lat="-34.096210735041595" lon="-71.97257548266994"><ele>81.99999999999999</ele><time>2026-03-30T20:31:10Z</time></trkpt><trkpt lat="-34.09625547006798" lon="-71.97251468323023"><ele>82.0</ele><time>2026-03-30T20:31:19Z</time></trkpt><trkpt lat="-34.09629176731696" lon="-71.97245052772185"><ele>85.85714285714285</ele><time>2026-03-30T20:31:28Z</time></trkpt><trkpt lat="-34.09630479365646" lon="-71.9723759729208"><ele>89.71428571428571</ele><time>2026-03-30T20:31:34Z</time></trkpt><trkpt lat="-34.096306814294024" lon="-71.97229021078489"><ele>93.57142857142857</ele><time>2026-03-30T20:31:41Z</time></trkpt><trkpt lat="-34.09631148448538" lon="-71.97221341399843"><ele>97.42857142857142</ele><time>2026-03-30T20:31:46Z</time></trkpt><trkpt lat="-34.09631109056824" lon="-71.97212917294554"><ele>101.28571428571429</ele><time>2026-03-30T20:31:51Z</time></trkpt><trkpt lat="-34.096293764026505" lon="-71.97205585145241"><ele>105.14285714285714</ele><time>2026-03-30T20:31:54.999Z</time></trkpt><trkpt lat="-34.09628411686412" lon="-71.97197756239066"><ele>109.0</ele><time>2026-03-30T20:31:59.999Z</time></trkpt><trkpt lat="-34.09627649144247" lon="-71.97189959529291"><ele>109.0</ele><time>2026-03-30T20:32:08.999Z</time></trkpt><trkpt lat="-34.096311171439524" lon="-71.97182580268394"><ele>109.0</ele><time>2026-03-30T20:32:16.999Z</time></trkpt><trkpt lat="-34.096339890241694" lon="-71.97175234262932"><ele>109.0</ele><time>2026-03-30T20:32:21.999Z</time></trkpt><trkpt lat="-34.09629736542364" lon="-71.97169326201491"><ele>109.0</ele><time>2026-03-30T20:32:38Z</time></trkpt><trkpt lat="-34.09630971205609" lon="-71.9715994573163"><ele>109.0</ele><time>2026-03-30T20:32:51Z</time></trkpt><trkpt lat="-34.0962931064961" lon="-71.97151569485827"><ele>109.0</ele><time>2026-03-30T20:33:11Z</time></trkpt><trkpt lat="-34.09630886320241" lon="-71.97143993215751"><ele>109.0</ele><time>2026-03-30T20:33:16Z</time></trkpt><trkpt lat="-34.096314260169734" lon="-71.97136075721718"><ele>110.85714285714286</ele><time>2026-03-30T20:33:22Z</time></trkpt><trkpt lat="-34.0963034556654" lon="-71.97128306980169"><ele>112.71428571428572</ele><time>2026-03-30T20:33:36Z</time></trkpt><trkpt lat="-34.09627187437172" lon="-71.97119977849205"><ele>114.57142857142856</ele><time>2026-03-30T20:33:42Z</time></trkpt><trkpt lat="-34.096262672425425" lon="-71.97112254304048"><ele>116.42857142857142</ele><time>2026-03-30T20:33:47Z</time></trkpt><trkpt lat="-34.0962483204205" lon="-71.97103986526619"><ele>118.28571428571428</ele><time>2026-03-30T20:33:54Z</time></trkpt><trkpt lat="-34.096230458776475" lon="-71.97095610804362"><ele>120.14285714285712</ele><time>2026-03-30T20:33:59.999Z</time></trkpt><trkpt lat="-34.09620311039196" lon="-71.97088408380809"><ele>121.99999999999999</ele><time>2026-03-30T20:34:04.999Z</time></trkpt><trkpt lat="-34.096180287914564" lon="-71.97079996222068"><ele>122.85714285714283</ele><time>2026-03-30T20:34:12.999Z</time></trkpt><trkpt lat="-34.09614376975554" lon="-71.97073153302365"><ele>123.71428571428571</ele><time>2026-03-30T20:34:18.999Z</time></trkpt><trkpt lat="-34.096107964777495" lon="-71.97065726469319"><ele>124.57142857142856</ele><time>2026-03-30T20:34:24.999Z</time></trkpt><trkpt lat="-34.09605907200821" lon="-71.97060907242339"><ele>125.42857142857142</ele><time>2026-03-30T20:34:30.999Z</time></trkpt><trkpt lat="-34.09600274035928" lon="-71.97056137482713"><ele>126.28571428571428</ele><time>2026-03-30T20:34:38Z</time></trkpt><trkpt lat="-34.09593967463366" lon="-71.9705292112924"><ele>127.14285714285714</ele><time>2026-03-30T20:34:44Z</time></trkpt><trkpt lat="-34.09587470446736" lon="-71.97048601761156"><ele>128.0</ele><time>2026-03-30T20:34:50Z</time></trkpt><trkpt lat="-34.09581260607915" lon="-71.9704491963261"><ele>128.0</ele><time>2026-03-30T20:34:56Z</time></trkpt><trkpt lat="-34.095758307674025" lon="-71.97041011012261"><ele>127.99999999999999</ele><time>2026-03-30T20:35:01Z</time></trkpt><trkpt lat="-34.09569046081891" lon="-71.97037331426809"><ele>128.0</ele><time>2026-03-30T20:35:08Z</time></trkpt><trkpt lat="-34.09563092242208" lon="-71.9703441986373"><ele>128.0</ele><time>2026-03-30T20:35:14Z</time></trkpt><trkpt lat="-34.09556972427002" lon="-71.97029369758175"><ele>127.99999999999999</ele><time>2026-03-30T20:35:21Z</time></trkpt><trkpt lat="-34.09553405332979" lon="-71.97022438755985"><ele>128.0</ele><time>2026-03-30T20:35:29Z</time></trkpt><trkpt lat="-34.09552629101376" lon="-71.97014277922706"><ele>128.0</ele><time>2026-03-30T20:35:37Z</time></trkpt><trkpt lat="-34.095505101754554" lon="-71.97006553057989"><ele>128.57142857142856</ele><time>2026-03-30T20:35:42Z</time></trkpt><trkpt lat="-34.095474072122805" lon="-71.96999794776664"><ele>129.14285714285714</ele><time>2026-03-30T20:35:46Z</time></trkpt><trkpt lat="-34.09544218821922" lon="-71.96992571428652"><ele>129.71428571428572</ele><time>2026-03-30T20:35:52Z</time></trkpt><trkpt lat="-34.095436338884916" lon="-71.96984478055853"><ele>130.28571428571428</ele><time>2026-03-30T20:35:59Z</time></trkpt><trkpt lat="-34.095402946322956" lon="-71.96977573139577"><ele>130.85714285714286</ele><time>2026-03-30T20:36:05.999Z</time></trkpt><trkpt lat="-34.09538011626048" lon="-71.96970274009753"><ele>131.42857142857142</ele><time>2026-03-30T20:36:11.999Z</time></trkpt><trkpt lat="-34.09535836969868" lon="-71.96963070919598"><ele>132.0</ele><time>2026-03-30T20:36:18.999Z</time></trkpt><trkpt lat="-34.095318780656065" lon="-71.96956970551936"><ele>132.0</ele><time>2026-03-30T20:36:23.999Z</time></trkpt><trkpt lat="-34.09528749116989" lon="-71.96950157338266"><ele>132.0</ele><time>2026-03-30T20:36:30.999Z</time></trkpt><trkpt lat="-34.09525663092226" lon="-71.96943252604545"><ele>132.0</ele><time>2026-03-30T20:36:36.999Z</time></trkpt><trkpt lat="-34.095230762790884" lon="-71.96936211509194"><ele>132.0</ele><time>2026-03-30T20:36:43Z</time></trkpt><trkpt lat="-34.09520344272184" lon="-71.96928089054813"><ele>132.0</ele><time>2026-03-30T20:36:50Z</time></trkpt><trkpt lat="-34.09517880312921" lon="-71.96920111802943"><ele>132.0</ele><time>2026-03-30T20:36:56Z</time></trkpt><trkpt lat="-34.095155072145396" lon="-71.96912591410526"><ele>132.0</ele><time>2026-03-30T20:37:01Z</time></trkpt><trkpt lat="-34.09513865098156" lon="-71.96904332812541"><ele>132.42857142857142</ele><time>2026-03-30T20:37:07Z</time></trkpt><trkpt lat="-34.09512072507294" lon="-71.96895985097498"><ele>132.85714285714286</ele><time>2026-03-30T20:37:13Z</time></trkpt><trkpt lat="-34.095117109832344" lon="-71.96887510241964"><ele>133.28571428571428</ele><time>2026-03-30T20:37:19Z</time></trkpt><trkpt lat="-34.095129589968664" lon="-71.968790131957"><ele>133.71428571428572</ele><time>2026-03-30T20:37:25Z</time></trkpt><trkpt lat="-34.095182200578115" lon="-71.96874472242236"><ele>134.14285714285714</ele><time>2026-03-30T20:37:33Z</time></trkpt><trkpt lat="-34.095237545787235" lon="-71.96868853305442"><ele>134.57142857142856</ele><time>2026-03-30T20:37:41Z</time></trkpt><trkpt lat="-34.09529462261756" lon="-71.96863983051625"><ele>135.0</ele><time>2026-03-30T20:37:47Z</time></trkpt><trkpt lat="-34.09533275604348" lon="-71.96857548234455"><ele>135.0</ele><time>2026-03-30T20:37:55Z</time></trkpt><trkpt lat="-34.095331236232724" lon="-71.96849047162935"><ele>135.0</ele><time>2026-03-30T20:38:01Z</time></trkpt><trkpt lat="-34.09529016894906" lon="-71.9684283773163"><ele>135.0</ele><time>2026-03-30T20:38:06.999Z</time></trkpt><trkpt lat="-34.09529154391197" lon="-71.96834811468653"><ele>135.0</ele><time>2026-03-30T20:38:11.999Z</time></trkpt><trkpt lat="-34.09531265241862" lon="-71.96827249273694"><ele>135.0</ele><time>2026-03-30T20:38:15.999Z</time></trkpt><trkpt lat="-34.09533492340732" lon="-71.96819526646522"><ele>135.0</ele><time>2026-03-30T20:38:19.999Z</time></trkpt><trkpt lat="-34.09537082211585" lon="-71.96811003014865"><ele>135.0</ele><time>2026-03-30T20:38:24.999Z</time></trkpt><trkpt lat="-34.0954163256914" lon="-71.96804289442787"><ele>135.57142857142856</ele><time>2026-03-30T20:38:29.999Z</time></trkpt><trkpt lat="-34.09547897899923" lon="-71.96799486489842"><ele>136.14285714285714</ele><time>2026-03-30T20:38:35.999Z</time></trkpt><trkpt lat="-34.09550148706956" lon="-71.96792230129081"><ele>136.71428571428572</ele><time>2026-03-30T20:39:01Z</time></trkpt><trkpt lat="-34.09555848359322" lon="-71.96787659963663"><ele>137.28571428571428</ele><time>2026-03-30T20:39:05Z</time></trkpt><trkpt lat="-34.09558435924459" lon="-71.96779495868184"><ele>137.85714285714286</ele><time>2026-03-30T20:39:11Z</time></trkpt><trkpt lat="-34.095599527910124" lon="-71.96771799402276"><ele>138.42857142857142</ele><time>2026-03-30T20:39:17Z</time></trkpt><trkpt lat="-34.095544455450074" lon="-71.96766912100834"><ele>139.0</ele><time>2026-03-30T20:39:26Z</time></trkpt><trkpt lat="-34.09549213874528" lon="-71.9676236753144"><ele>139.0</ele><time>2026-03-30T20:39:30Z</time></trkpt><trkpt lat="-34.09544724252903" lon="-71.9675632905696"><ele>139.0</ele><time>2026-03-30T20:39:34Z</time></trkpt><trkpt lat="-34.095388334512045" lon="-71.96752553823984"><ele>139.0</ele><time>2026-03-30T20:39:37Z</time></trkpt><trkpt lat="-34.09531602989161" lon="-71.96749325624319"><ele>139.0</ele><time>2026-03-30T20:39:43Z</time></trkpt><trkpt lat="-34.09524978431483" lon="-71.96746120612407"><ele>139.0</ele><time>2026-03-30T20:39:47Z</time></trkpt><trkpt lat="-34.095177672806315" lon="-71.96750649001189"><ele>139.0</ele><time>2026-03-30T20:39:53Z</time></trkpt><trkpt lat="-34.095120093540544" lon="-71.96755107920437"><ele>139.0</ele><time>2026-03-30T20:39:58Z</time></trkpt><trkpt lat="-34.09506446646526" lon="-71.96760327685797"><ele>139.0</ele><time>2026-03-30T20:40:03.999Z</time></trkpt><trkpt lat="-34.09500109855474" lon="-71.96760367277027"><ele>139.0</ele><time>2026-03-30T20:40:08.999Z</time></trkpt><trkpt lat="-34.09493707919732" lon="-71.96761164831887"><ele>139.0</ele><time>2026-03-30T20:40:19.999Z</time></trkpt><trkpt lat="-34.09486435757856" lon="-71.96759800323527"><ele>139.0</ele><time>2026-03-30T20:40:23.999Z</time></trkpt><trkpt lat="-34.09480027283919" lon="-71.96757646139643"><ele>139.0</ele><time>2026-03-30T20:40:30.999Z</time></trkpt><trkpt lat="-34.09473913209117" lon="-71.96755442690561"><ele>139.0</ele><time>2026-03-30T20:40:35.999Z</time></trkpt><trkpt lat="-34.094674106279946" lon="-71.9675639691078"><ele>139.0</ele><time>2026-03-30T20:40:44.999Z</time></trkpt><trkpt lat="-34.09460910104657" lon="-71.96756987756689"><ele>137.57142857142856</ele><time>2026-03-30T20:40:49.999Z</time></trkpt><trkpt lat="-34.09453639922307" lon="-71.96758018003845"><ele>136.14285714285714</ele><time>2026-03-30T20:40:55Z</time></trkpt><trkpt lat="-34.09445759206491" lon="-71.9675812386841"><ele>134.71428571428572</ele><time>2026-03-30T20:41:01Z</time></trkpt><trkpt lat="-34.0943933569422" lon="-71.96758686504363"><ele>133.28571428571428</ele><time>2026-03-30T20:41:06Z</time></trkpt><trkpt lat="-34.09432651132469" lon="-71.96760743756882"><ele>131.85714285714286</ele><time>2026-03-30T20:41:10Z</time></trkpt><trkpt lat="-34.09425492912499" lon="-71.96763164762869"><ele>130.42857142857142</ele><time>2026-03-30T20:41:15Z</time></trkpt><trkpt lat="-34.094187713524846" lon="-71.96763533613269"><ele>129.0</ele><time>2026-03-30T20:41:19Z</time></trkpt><trkpt lat="-34.09411934255792" lon="-71.96765923664451"><ele>128.99999999999997</ele><time>2026-03-30T20:41:24Z</time></trkpt><trkpt lat="-34.09404743868801" lon="-71.96768139968039"><ele>129.0</ele><time>2026-03-30T20:41:29Z</time></trkpt><trkpt lat="-34.09396804492612" lon="-71.96770019647131"><ele>129.0</ele><time>2026-03-30T20:41:34Z</time></trkpt><trkpt lat="-34.09390043097688" lon="-71.96771875171756"><ele>129.0</ele><time>2026-03-30T20:41:39Z</time></trkpt><trkpt lat="-34.09383287233284" lon="-71.9677256979772"><ele>129.0</ele><time>2026-03-30T20:41:43Z</time></trkpt><trkpt lat="-34.09376142881311" lon="-71.96772610293047"><ele>128.99999999999997</ele><time>2026-03-30T20:41:49Z</time></trkpt><trkpt lat="-34.09369601185759" lon="-71.96774127759774"><ele>129.0</ele><time>2026-03-30T20:41:54Z</time></trkpt><trkpt lat="-34.09361593172369" lon="-71.96774962973241"><ele>128.99999999999997</ele><time>2026-03-30T20:41:59Z</time></trkpt><trkpt lat="-34.093544615087936" lon="-71.96775222328218"><ele>129.0</ele><time>2026-03-30T20:42:03.999Z</time></trkpt><trkpt lat="-34.09346341139349" lon="-71.96771862190009"><ele>129.0</ele><time>2026-03-30T20:42:09.999Z</time></trkpt><trkpt lat="-34.09339530879763" lon="-71.96770031623716"><ele>129.0</ele><time>2026-03-30T20:42:14.999Z</time></trkpt><trkpt lat="-34.093326586983395" lon="-71.9676660195115"><ele>129.0</ele><time>2026-03-30T20:42:20.999Z</time></trkpt><trkpt lat="-34.09325751001098" lon="-71.96763682096879"><ele>128.99999999999997</ele><time>2026-03-30T20:42:26.999Z</time></trkpt><trkpt lat="-34.09319249011428" lon="-71.96764751147865"><ele>129.0</ele><time>2026-03-30T20:42:31.999Z</time></trkpt><trkpt lat="-34.093123545626916" lon="-71.96763297582295"><ele>127.85714285714283</ele><time>2026-03-30T20:42:37.999Z</time></trkpt><trkpt lat="-34.09305265094261" lon="-71.96763712038889"><ele>126.71428571428571</ele><time>2026-03-30T20:42:43.999Z</time></trkpt><trkpt lat="-34.09298898209667" lon="-71.96764520942322"><ele>125.57142857142856</ele><time>2026-03-30T20:42:48.999Z</time></trkpt><trkpt lat="-34.092923960909275" lon="-71.96764440722718"><ele>124.42857142857142</ele><time>2026-03-30T20:42:52.999Z</time></trkpt><trkpt lat="-34.09285345666003" lon="-71.96764326329205"><ele>123.28571428571428</ele><time>2026-03-30T20:42:56.999Z</time></trkpt><trkpt lat="-34.09278929712326" lon="-71.96762826412106"><ele>122.14285714285714</ele><time>2026-03-30T20:43:01Z</time></trkpt><trkpt lat="-34.092730877486815" lon="-71.96758882221626"><ele>121.0</ele><time>2026-03-30T20:43:06Z</time></trkpt><trkpt lat="-34.09266520311757" lon="-71.96756973049257"><ele>120.85714285714285</ele><time>2026-03-30T20:43:10Z</time></trkpt><trkpt lat="-34.09260954817232" lon="-71.96751685612365"><ele>120.7142857142857</ele><time>2026-03-30T20:43:15Z</time></trkpt><trkpt lat="-34.09254605476858" lon="-71.96748812793236"><ele>120.57142857142857</ele><time>2026-03-30T20:43:20Z</time></trkpt><trkpt lat="-34.092471925070505" lon="-71.96745967341079"><ele>120.42857142857142</ele><time>2026-03-30T20:43:26Z</time></trkpt><trkpt lat="-34.092407855714015" lon="-71.96745344515968"><ele>120.28571428571428</ele><time>2026-03-30T20:43:31Z</time></trkpt><trkpt lat="-34.09233921445485" lon="-71.96745264371185"><ele>120.14285714285714</ele><time>2026-03-30T20:43:34Z</time></trkpt><trkpt lat="-34.09227912834648" lon="-71.96742234514669"><ele>120.0</ele><time>2026-03-30T20:43:39Z</time></trkpt><trkpt lat="-34.092210219143375" lon="-71.96737547848241"><ele>120.0</ele><time>2026-03-30T20:43:44Z</time></trkpt><trkpt lat="-34.09215184255104" lon="-71.96732431480584"><ele>120.0</ele><time>2026-03-30T20:43:48Z</time></trkpt><trkpt lat="-34.092122751746814" lon="-71.96724230043696"><ele>120.0</ele><time>2026-03-30T20:43:53Z</time></trkpt><trkpt lat="-34.092066418113596" lon="-71.96719664584167"><ele>120.0</ele><time>2026-03-30T20:43:57Z</time></trkpt><trkpt lat="-34.09201873693498" lon="-71.96714226736978"><ele>120.0</ele><time>2026-03-30T20:44:02Z</time></trkpt><trkpt lat="-34.09196086678977" lon="-71.96710319324939"><ele>120.0</ele><time>2026-03-30T20:44:07Z</time></trkpt><trkpt lat="-34.09188839890013" lon="-71.96707633080604"><ele>120.0</ele><time>2026-03-30T20:44:12Z</time></trkpt><trkpt lat="-34.091827089559004" lon="-71.96703889658683"><ele>120.0</ele><time>2026-03-30T20:44:17Z</time></trkpt><trkpt lat="-34.09177192639191" lon="-71.96700169393154"><ele>120.0</ele><time>2026-03-30T20:44:22Z</time></trkpt><trkpt lat="-34.09169996203479" lon="-71.9669927889077"><ele>120.0</ele><time>2026-03-30T20:44:27Z</time></trkpt><trkpt lat="-34.091634559373674" lon="-71.96698539621661"><ele>120.0</ele><time>2026-03-30T20:44:31Z</time></trkpt><trkpt lat="-34.091570949261595" lon="-71.96698031867766"><ele>120.0</ele><time>2026-03-30T20:44:35Z</time></trkpt><trkpt lat="-34.09149655360807" lon="-71.9669710274176"><ele>120.0</ele><time>2026-03-30T20:44:39.999Z</time></trkpt><trkpt lat="-34.09142977657227" lon="-71.96694919480615"><ele>120.0</ele><time>2026-03-30T20:44:44.999Z</time></trkpt><trkpt lat="-34.09136295961509" lon="-71.96694101207274"><ele>119.0</ele><time>2026-03-30T20:44:49.999Z</time></trkpt><trkpt lat="-34.09128969836721" lon="-71.96692890637046"><ele>118.0</ele><time>2026-03-30T20:44:54.999Z</time></trkpt><trkpt lat="-34.09122392910656" lon="-71.96691247070754"><ele>117.0</ele><time>2026-03-30T20:44:59.999Z</time></trkpt><trkpt lat="-34.09116149892212" lon="-71.96689658466785"><ele>116.0</ele><time>2026-03-30T20:45:05Z</time></trkpt><trkpt lat="-34.09109653614322" lon="-71.96687253050365"><ele>115.0</ele><time>2026-03-30T20:45:10Z</time></trkpt><trkpt lat="-34.09102997888946" lon="-71.96683763225232"><ele>114.0</ele><time>2026-03-30T20:45:15Z</time></trkpt><trkpt lat="-34.090970095639236" lon="-71.96679415161088"><ele>113.0</ele><time>2026-03-30T20:45:20Z</time></trkpt><trkpt lat="-34.09090819909451" lon="-71.9667637568627"><ele>113.0</ele><time>2026-03-30T20:45:25Z</time></trkpt><trkpt lat="-34.09084426897574" lon="-71.96671981459124"><ele>113.0</ele><time>2026-03-30T20:45:31Z</time></trkpt><trkpt lat="-34.09078033935546" lon="-71.96669432637343"><ele>113.0</ele><time>2026-03-30T20:45:36Z</time></trkpt><trkpt lat="-34.09070849264254" lon="-71.96667305209674"><ele>113.0</ele><time>2026-03-30T20:45:41Z</time></trkpt><trkpt lat="-34.0906365903246" lon="-71.96669002749456"><ele>113.0</ele><time>2026-03-30T20:45:46Z</time></trkpt><trkpt lat="-34.090572205897885" lon="-71.96664385597754"><ele>113.0</ele><time>2026-03-30T20:45:52Z</time></trkpt><trkpt lat="-34.090521720580966" lon="-71.9665959162276"><ele>113.0</ele><time>2026-03-30T20:45:57Z</time></trkpt><trkpt lat="-34.090455574863434" lon="-71.96656782715661"><ele>111.57142857142857</ele><time>2026-03-30T20:46:02Z</time></trkpt><trkpt lat="-34.09039602211433" lon="-71.96653722435815"><ele>110.14285714285714</ele><time>2026-03-30T20:46:07Z</time></trkpt><trkpt lat="-34.09034722432401" lon="-71.96647181473848"><ele>108.71428571428571</ele><time>2026-03-30T20:46:13Z</time></trkpt><trkpt lat="-34.09029488667331" lon="-71.9664221493491"><ele>107.28571428571428</ele><time>2026-03-30T20:46:18Z</time></trkpt><trkpt lat="-34.09025479350307" lon="-71.96635506862401"><ele>105.85714285714286</ele><time>2026-03-30T20:46:23Z</time></trkpt><trkpt lat="-34.09018748883635" lon="-71.96631965706943"><ele>104.42857142857142</ele><time>2026-03-30T20:46:29Z</time></trkpt><trkpt lat="-34.09010996902186" lon="-71.96630381044416"><ele>103.0</ele><time>2026-03-30T20:46:35Z</time></trkpt><trkpt lat="-34.0900482927644" lon="-71.96627669246597"><ele>102.99999999999999</ele><time>2026-03-30T20:46:39.999Z</time></trkpt><trkpt lat="-34.08998264884492" lon="-71.96625244676508"><ele>103.0</ele><time>2026-03-30T20:46:44.999Z</time></trkpt><trkpt lat="-34.089917077876905" lon="-71.96623759407764"><ele>103.0</ele><time>2026-03-30T20:46:49.999Z</time></trkpt><trkpt lat="-34.08985275212787" lon="-71.96621148481759"><ele>103.0</ele><time>2026-03-30T20:46:55.999Z</time></trkpt><trkpt lat="-34.089785009090704" lon="-71.96617671571049"><ele>103.0</ele><time>2026-03-30T20:47:01.999Z</time></trkpt><trkpt lat="-34.08973121503851" lon="-71.96612307551162"><ele>102.99999999999999</ele><time>2026-03-30T20:47:06.999Z</time></trkpt><trkpt lat="-34.08967546902558" lon="-71.9660700439519"><ele>103.0</ele><time>2026-03-30T20:47:12Z</time></trkpt><trkpt lat="-34.08960742687092" lon="-71.96604924795484"><ele>101.28571428571428</ele><time>2026-03-30T20:47:17Z</time></trkpt><trkpt lat="-34.089556267759036" lon="-71.96599051727563"><ele>99.57142857142857</ele><time>2026-03-30T20:47:22Z</time></trkpt><trkpt lat="-34.089489039328726" lon="-71.96596387130857"><ele>97.85714285714286</ele><time>2026-03-30T20:47:27Z</time></trkpt><trkpt lat="-34.08942986552048" lon="-71.96592489969555"><ele>96.14285714285714</ele><time>2026-03-30T20:47:32Z</time></trkpt><trkpt lat="-34.08936964738045" lon="-71.96588684368649"><ele>94.42857142857143</ele><time>2026-03-30T20:47:37Z</time></trkpt><trkpt lat="-34.08930136874193" lon="-71.9658689440659"><ele>92.71428571428571</ele><time>2026-03-30T20:47:42Z</time></trkpt><trkpt lat="-34.089231251405344" lon="-71.96586858533306"><ele>91.0</ele><time>2026-03-30T20:47:47Z</time></trkpt><trkpt lat="-34.089163540732024" lon="-71.96588107935352"><ele>90.85714285714286</ele><time>2026-03-30T20:47:52Z</time></trkpt><trkpt lat="-34.08909969274846" lon="-71.96585648624877"><ele>90.71428571428572</ele><time>2026-03-30T20:47:57Z</time></trkpt><trkpt lat="-34.08903957339776" lon="-71.96580011379075"><ele>90.57142857142857</ele><time>2026-03-30T20:48:02Z</time></trkpt><trkpt lat="-34.08898003295506" lon="-71.96575177533701"><ele>90.42857142857143</ele><time>2026-03-30T20:48:07Z</time></trkpt><trkpt lat="-34.088945370658045" lon="-71.96567963773043"><ele>90.28571428571429</ele><time>2026-03-30T20:48:12Z</time></trkpt><trkpt lat="-34.0888970422136" lon="-71.96562092799712"><ele>90.14285714285714</ele><time>2026-03-30T20:48:17Z</time></trkpt><trkpt lat="-34.0888292572142" lon="-71.96558479009751"><ele>90.0</ele><time>2026-03-30T20:48:23Z</time></trkpt><trkpt lat="-34.08876078480457" lon="-71.96557741923583"><ele>88.71428571428571</ele><time>2026-03-30T20:48:29Z</time></trkpt><trkpt lat="-34.08869473177776" lon="-71.96559353882037"><ele>87.42857142857143</ele><time>2026-03-30T20:48:35Z</time></trkpt><trkpt lat="-34.088637497326566" lon="-71.9656328045942"><ele>86.14285714285714</ele><time>2026-03-30T20:48:43Z</time></trkpt><trkpt lat="-34.088571121343136" lon="-71.96564592900481"><ele>84.85714285714286</ele><time>2026-03-30T20:48:49Z</time></trkpt><trkpt lat="-34.08853351748141" lon="-71.96571699390915"><ele>83.57142857142857</ele><time>2026-03-30T20:48:55Z</time></trkpt><trkpt lat="-34.08848191960378" lon="-71.96578382258416"><ele>82.28571428571429</ele><time>2026-03-30T20:49:00.999Z</time></trkpt><trkpt lat="-34.0884399017713" lon="-71.96584777810833"><ele>81.0</ele><time>2026-03-30T20:49:07.999Z</time></trkpt><trkpt lat="-34.088385556621645" lon="-71.96590442108095"><ele>80.57142857142857</ele><time>2026-03-30T20:49:13.999Z</time></trkpt><trkpt lat="-34.088338331281875" lon="-71.96596540063597"><ele>80.14285714285714</ele><time>2026-03-30T20:49:22Z</time></trkpt><trkpt lat="-34.08826684200529" lon="-71.9660038358818"><ele>79.71428571428572</ele><time>2026-03-30T20:49:29Z</time></trkpt><trkpt lat="-34.088204370139024" lon="-71.96601978965377"><ele>79.28571428571428</ele><time>2026-03-30T20:49:34Z</time></trkpt><trkpt lat="-34.08813601949104" lon="-71.96603247195688"><ele>78.85714285714285</ele><time>2026-03-30T20:49:39Z</time></trkpt><trkpt lat="-34.08806906491275" lon="-71.96603286965565"><ele>78.42857142857143</ele><time>2026-03-30T20:49:45Z</time></trkpt><trkpt lat="-34.087998500405284" lon="-71.96603036440432"><ele>78.0</ele><time>2026-03-30T20:49:53Z</time></trkpt><trkpt lat="-34.08792910285885" lon="-71.96601344537453"><ele>75.71428571428572</ele><time>2026-03-30T20:49:58Z</time></trkpt><trkpt lat="-34.087857701539534" lon="-71.96600964317881"><ele>73.42857142857142</ele><time>2026-03-30T20:50:06Z</time></trkpt><trkpt lat="-34.08779861837272" lon="-71.96604070084723"><ele>71.14285714285714</ele><time>2026-03-30T20:50:13Z</time></trkpt><trkpt lat="-34.087750469323595" lon="-71.96609599938893"><ele>68.85714285714286</ele><time>2026-03-30T20:50:19Z</time></trkpt><trkpt lat="-34.08768130046409" lon="-71.96612123076603"><ele>66.57142857142858</ele><time>2026-03-30T20:50:24Z</time></trkpt><trkpt lat="-34.08762598260547" lon="-71.96615972744358"><ele>64.28571428571429</ele><time>2026-03-30T20:50:30Z</time></trkpt><trkpt lat="-34.08755640148641" lon="-71.96617818513853"><ele>62.0</ele><time>2026-03-30T20:50:36Z</time></trkpt><trkpt lat="-34.08749231713949" lon="-71.9661557716247"><ele>62.0</ele><time>2026-03-30T20:50:41Z</time></trkpt><trkpt lat="-34.087435963641006" lon="-71.96611686001259"><ele>62.00000000000001</ele><time>2026-03-30T20:50:46Z</time></trkpt><trkpt lat="-34.08738602953638" lon="-71.96605109910696"><ele>62.0</ele><time>2026-03-30T20:50:51.999Z</time></trkpt><trkpt lat="-34.087337501567795" lon="-71.96599314777465"><ele>62.0</ele><time>2026-03-30T20:50:57.999Z</time></trkpt><trkpt lat="-34.08729070812307" lon="-71.96593145409639"><ele>62.00000000000001</ele><time>2026-03-30T20:51:03.999Z</time></trkpt><trkpt lat="-34.08727569304729" lon="-71.96584432436171"><ele>62.0</ele><time>2026-03-30T20:51:09.999Z</time></trkpt><trkpt lat="-34.087265840040665" lon="-71.96576195167839"><ele>62.0</ele><time>2026-03-30T20:51:15.999Z</time></trkpt><trkpt lat="-34.0872868170496" lon="-71.96569023374329"><ele>62.0</ele><time>2026-03-30T20:51:20.999Z</time></trkpt><trkpt lat="-34.087304853883836" lon="-71.96561723825337"><ele>62.00000000000001</ele><time>2026-03-30T20:51:37Z</time></trkpt><trkpt lat="-34.08731747193023" lon="-71.96552024520713"><ele>62.0</ele><time>2026-03-30T20:51:45Z</time></trkpt><trkpt lat="-34.087343627939426" lon="-71.96544674963397"><ele>62.0</ele><time>2026-03-30T20:51:51Z</time></trkpt><trkpt lat="-34.08738595520779" lon="-71.96537982526137"><ele>62.00000000000001</ele><time>2026-03-30T20:51:59Z</time></trkpt><trkpt lat="-34.08741951409262" lon="-71.96529387517495"><ele>62.0</ele><time>2026-03-30T20:52:05Z</time></trkpt><trkpt lat="-34.08745845235766" lon="-71.96522999170523"><ele>62.0</ele><time>2026-03-30T20:52:10Z</time></trkpt><trkpt lat="-34.08749032051436" lon="-71.965151751622"><ele>62.0</ele><time>2026-03-30T20:52:16Z</time></trkpt><trkpt lat="-34.08751544366381" lon="-71.96506774842753"><ele>62.00000000000001</ele><time>2026-03-30T20:52:22Z</time></trkpt><trkpt lat="-34.08754986406116" lon="-71.96499161026591"><ele>62.0</ele><time>2026-03-30T20:52:37Z</time></trkpt><trkpt lat="-34.08757891222077" lon="-71.96491844346598"><ele>62.0</ele><time>2026-03-30T20:52:44Z</time></trkpt><trkpt lat="-34.08761032006476" lon="-71.96484917766071"><ele>62.00000000000001</ele><time>2026-03-30T20:52:49.999Z</time></trkpt><trkpt lat="-34.0876390352524" lon="-71.96476953121059"><ele>62.0</ele><time>2026-03-30T20:52:55.999Z</time></trkpt><trkpt lat="-34.08767665336413" lon="-71.96469695166594"><ele>62.0</ele><time>2026-03-30T20:53:03.999Z</time></trkpt><trkpt lat="-34.087708710935466" lon="-71.96461507222806"><ele>60.714285714285715</ele><time>2026-03-30T20:53:10.999Z</time></trkpt><trkpt lat="-34.08772819527517" lon="-71.96453120842857"><ele>59.42857142857143</ele><time>2026-03-30T20:53:17.999Z</time></trkpt><trkpt lat="-34.08771592539397" lon="-71.96445409357874"><ele>58.142857142857146</ele><time>2026-03-30T20:53:23.999Z</time></trkpt><trkpt lat="-34.08765847246428" lon="-71.96441331246032"><ele>56.85714285714286</ele><time>2026-03-30T20:53:50Z</time></trkpt><trkpt lat="-34.08759497829663" lon="-71.96440424246971"><ele>55.57142857142857</ele><time>2026-03-30T20:53:59Z</time></trkpt><trkpt lat="-34.08757646325456" lon="-71.9643239083597"><ele>54.28571428571429</ele><time>2026-03-30T20:54:07Z</time></trkpt><trkpt lat="-34.087573131378136" lon="-71.96424705306461"><ele>53.0</ele><time>2026-03-30T20:54:18Z</time></trkpt><trkpt lat="-34.087496390705454" lon="-71.96420895064907"><ele>50.0</ele><time>2026-03-30T20:57:42Z</time></trkpt><trkpt lat="-34.08746793566031" lon="-71.96413674609104"><ele>47.0</ele><time>2026-03-30T20:58:02Z</time></trkpt><trkpt lat="-34.08740885175741" lon="-71.96409914589704"><ele>44.0</ele><time>2026-03-30T20:58:19Z</time></trkpt><trkpt lat="-34.0873867613436" lon="-71.96401864946968"><ele>41.0</ele><time>2026-03-30T20:58:28Z</time></trkpt><trkpt lat="-34.087331570084665" lon="-71.96406034148598"><ele>38.0</ele><time>2026-03-30T20:59:11.999Z</time></trkpt><trkpt lat="-34.08728731743676" lon="-71.96411491830587"><ele>35.0</ele><time>2026-03-30T20:59:20.999Z</time></trkpt><trkpt lat="-34.08722695533995" lon="-71.96414421138459"><ele>32.0</ele><time>2026-03-30T20:59:40.999Z</time></trkpt><trkpt lat="-34.08718935089031" lon="-71.96407663848935"><ele>28.71428571428571</ele><time>2026-03-30T20:59:50Z</time></trkpt><trkpt lat="-34.08718651385053" lon="-71.96399728003213"><ele>25.428571428571427</ele><time>2026-03-30T21:00:10Z</time></trkpt><trkpt lat="-34.08719988573476" lon="-71.96391940254426"><ele>22.142857142857142</ele><time>2026-03-30T21:00:21Z</time></trkpt><trkpt lat="-34.08724459813612" lon="-71.9638560185647"><ele>18.857142857142858</ele><time>2026-03-30T21:00:29Z</time></trkpt><trkpt lat="-34.08729735924083" lon="-71.96379931311061"><ele>15.571428571428571</ele><time>2026-03-30T21:00:36Z</time></trkpt><trkpt lat="-34.08731459453826" lon="-71.963713790237"><ele>12.285714285714286</ele><time>2026-03-30T21:00:44Z</time></trkpt><trkpt lat="-34.08737229075382" lon="-71.96367306604135"><ele>9.0</ele><time>2026-03-30T21:00:51Z</time></trkpt><trkpt lat="-34.08742511454987" lon="-71.96362196554382"><ele>9.0</ele><time>2026-03-30T21:00:56.999Z</time></trkpt><trkpt lat="-34.08748340909877" lon="-71.96359249937228"><ele>32.0</ele><time>2026-03-30T21:01:01.999Z</time></trkpt><trkpt lat="-34.08754521463609" lon="-71.96355231074665"><ele>32.0</ele><time>2026-03-30T21:01:07.999Z</time></trkpt><trkpt lat="-34.08760260397676" lon="-71.96350071682232"><ele>32.0</ele><time>2026-03-30T21:01:14.999Z</time></trkpt><trkpt lat="-34.087658389039916" lon="-71.96345232335531"><ele>32.0</ele><time>2026-03-30T21:01:20.999Z</time></trkpt></trkseg></trk></gpx>